<?xml version="1.0" encoding="UTF-8" standalone="no" ?>
<gpx xmlns="http://www.topografix.com/GPX/1/1" xmlns:xsi="http://www.w3.org/2001/XMLSchema-instance" xsi:schemaLocation="http://www.topografix.com/GPX/1/1 http://www.topografix.com/GPX/1/1/gpx.xsd" version="1.1" creator="VisuGPX - https://www.visugpx.com">
  <metadata>
    <name>Boucle  Paladru</name>
    <desc><![CDATA[Boucle Paladru]]></desc>
  </metadata>
  <trk>
    <name><![CDATA[Paladru 2013-06-16 12:04]]></name>
    <trkseg>
      <trkpt lat="45.48864" lon="5.54196">
        <ele>633.7</ele>
        <time>2013-06-16T10:10:01Z</time>
      </trkpt>
      <trkpt lat="45.48359" lon="5.54108">
        <ele>608.1</ele>
        <time>2013-06-16T10:10:55Z</time>
      </trkpt>
      <trkpt lat="45.48375" lon="5.54169">
        <ele>608.5</ele>
        <time>2013-06-16T10:11:29Z</time>
      </trkpt>
      <trkpt lat="45.484" lon="5.54156">
        <ele>650.30004882812</ele>
        <time>2013-06-16T10:11:54Z</time>
      </trkpt>
      <trkpt lat="45.48432" lon="5.54159">
        <ele>657.40002441406</ele>
        <time>2013-06-16T10:12:19Z</time>
      </trkpt>
      <trkpt lat="45.48461" lon="5.54155">
        <ele>659</ele>
        <time>2013-06-16T10:12:43Z</time>
      </trkpt>
      <trkpt lat="45.48467" lon="5.54142">
        <ele>689.09997558594</ele>
        <time>2013-06-16T10:13:15Z</time>
      </trkpt>
      <trkpt lat="45.48507" lon="5.54135">
        <ele>659.90002441406</ele>
        <time>2013-06-16T10:14:01Z</time>
      </trkpt>
      <trkpt lat="45.4854" lon="5.54134">
        <ele>663.69995117188</ele>
        <time>2013-06-16T10:14:26Z</time>
      </trkpt>
      <trkpt lat="45.48582" lon="5.54145">
        <ele>670.59997558594</ele>
        <time>2013-06-16T10:14:51Z</time>
      </trkpt>
      <trkpt lat="45.48598" lon="5.54165">
        <ele>657.09997558594</ele>
        <time>2013-06-16T10:15:14Z</time>
      </trkpt>
      <trkpt lat="45.48637" lon="5.54198">
        <ele>675.5</ele>
        <time>2013-06-16T10:16:34Z</time>
      </trkpt>
      <trkpt lat="45.48668" lon="5.54223">
        <ele>673.90002441406</ele>
        <time>2013-06-16T10:16:59Z</time>
      </trkpt>
      <trkpt lat="45.48696" lon="5.5425">
        <ele>677</ele>
        <time>2013-06-16T10:17:23Z</time>
      </trkpt>
      <trkpt lat="45.48724" lon="5.54266">
        <ele>672.5</ele>
        <time>2013-06-16T10:17:50Z</time>
      </trkpt>
      <trkpt lat="45.48754" lon="5.5427">
        <ele>671.09997558594</ele>
        <time>2013-06-16T10:18:14Z</time>
      </trkpt>
      <trkpt lat="45.48791" lon="5.54269">
        <ele>678</ele>
        <time>2013-06-16T10:18:37Z</time>
      </trkpt>
      <trkpt lat="45.48839" lon="5.54274">
        <ele>675.40002441406</ele>
        <time>2013-06-16T10:19:08Z</time>
      </trkpt>
      <trkpt lat="45.48878" lon="5.54277">
        <ele>681.19995117188</ele>
        <time>2013-06-16T10:19:34Z</time>
      </trkpt>
      <trkpt lat="45.4892" lon="5.54284">
        <ele>683.09997558594</ele>
        <time>2013-06-16T10:19:59Z</time>
      </trkpt>
      <trkpt lat="45.48979" lon="5.54309">
        <ele>685.59997558594</ele>
        <time>2013-06-16T10:20:31Z</time>
      </trkpt>
      <trkpt lat="45.49012" lon="5.54332">
        <ele>680.80004882812</ele>
        <time>2013-06-16T10:20:55Z</time>
      </trkpt>
      <trkpt lat="45.49043" lon="5.54359">
        <ele>688.90002441406</ele>
        <time>2013-06-16T10:21:17Z</time>
      </trkpt>
      <trkpt lat="45.49069" lon="5.54384">
        <ele>680.90002441406</ele>
        <time>2013-06-16T10:21:43Z</time>
      </trkpt>
      <trkpt lat="45.49106" lon="5.54398">
        <ele>676.19995117188</ele>
        <time>2013-06-16T10:22:10Z</time>
      </trkpt>
      <trkpt lat="45.4914" lon="5.54416">
        <ele>680.09997558594</ele>
        <time>2013-06-16T10:22:33Z</time>
      </trkpt>
      <trkpt lat="45.49178" lon="5.54428">
        <ele>679.09997558594</ele>
        <time>2013-06-16T10:22:59Z</time>
      </trkpt>
      <trkpt lat="45.49212" lon="5.54426">
        <ele>676.5</ele>
        <time>2013-06-16T10:23:25Z</time>
      </trkpt>
      <trkpt lat="45.49257" lon="5.5443">
        <ele>678.5</ele>
        <time>2013-06-16T10:23:53Z</time>
      </trkpt>
      <trkpt lat="45.49302" lon="5.54432">
        <ele>666.80004882812</ele>
        <time>2013-06-16T10:24:28Z</time>
      </trkpt>
      <trkpt lat="45.49351" lon="5.54417">
        <ele>665.19995117188</ele>
        <time>2013-06-16T10:25:01Z</time>
      </trkpt>
      <trkpt lat="45.49376" lon="5.54387">
        <ele>660.09997558594</ele>
        <time>2013-06-16T10:25:24Z</time>
      </trkpt>
      <trkpt lat="45.49401" lon="5.54361">
        <ele>655.80004882812</ele>
        <time>2013-06-16T10:25:46Z</time>
      </trkpt>
      <trkpt lat="45.49426" lon="5.54322">
        <ele>656.09997558594</ele>
        <time>2013-06-16T10:26:09Z</time>
      </trkpt>
      <trkpt lat="45.49453" lon="5.54277">
        <ele>651.30004882812</ele>
        <time>2013-06-16T10:26:36Z</time>
      </trkpt>
      <trkpt lat="45.49462" lon="5.54219">
        <ele>647.40002441406</ele>
        <time>2013-06-16T10:27:02Z</time>
      </trkpt>
      <trkpt lat="45.49448" lon="5.54161">
        <ele>652.5</ele>
        <time>2013-06-16T10:27:27Z</time>
      </trkpt>
      <trkpt lat="45.49428" lon="5.54106">
        <ele>637.80004882812</ele>
        <time>2013-06-16T10:28:02Z</time>
      </trkpt>
      <trkpt lat="45.49455" lon="5.54036">
        <ele>650.59997558594</ele>
        <time>2013-06-16T10:28:32Z</time>
      </trkpt>
      <trkpt lat="45.49478" lon="5.53996">
        <ele>641.59997558594</ele>
        <time>2013-06-16T10:28:57Z</time>
      </trkpt>
      <trkpt lat="45.49495" lon="5.53967">
        <ele>636.59997558594</ele>
        <time>2013-06-16T10:29:21Z</time>
      </trkpt>
      <trkpt lat="45.49513" lon="5.53908">
        <ele>635.09997558594</ele>
        <time>2013-06-16T10:29:51Z</time>
      </trkpt>
      <trkpt lat="45.4953" lon="5.53864">
        <ele>627.90002441406</ele>
        <time>2013-06-16T10:30:18Z</time>
      </trkpt>
      <trkpt lat="45.49551" lon="5.53807">
        <ele>628.40002441406</ele>
        <time>2013-06-16T10:30:48Z</time>
      </trkpt>
      <trkpt lat="45.49574" lon="5.5377">
        <ele>618.80004882812</ele>
        <time>2013-06-16T10:31:15Z</time>
      </trkpt>
      <trkpt lat="45.49594" lon="5.53723">
        <ele>615.80004882812</ele>
        <time>2013-06-16T10:31:40Z</time>
      </trkpt>
      <trkpt lat="45.49611" lon="5.53683">
        <ele>612.40002441406</ele>
        <time>2013-06-16T10:33:19Z</time>
      </trkpt>
      <trkpt lat="45.49636" lon="5.53643">
        <ele>609.09997558594</ele>
        <time>2013-06-16T10:33:45Z</time>
      </trkpt>
      <trkpt lat="45.49703" lon="5.53755">
        <ele>613.90002441406</ele>
        <time>2013-06-16T10:34:20Z</time>
      </trkpt>
      <trkpt lat="45.49758" lon="5.53792">
        <ele>617.40002441406</ele>
        <time>2013-06-16T10:34:43Z</time>
      </trkpt>
      <trkpt lat="45.49784" lon="5.53778">
        <ele>612.09997558594</ele>
        <time>2013-06-16T10:35:09Z</time>
      </trkpt>
      <trkpt lat="45.49794" lon="5.53736">
        <ele>612.19995117188</ele>
        <time>2013-06-16T10:35:34Z</time>
      </trkpt>
      <trkpt lat="45.49807" lon="5.53682">
        <ele>615.80004882812</ele>
        <time>2013-06-16T10:36:01Z</time>
      </trkpt>
      <trkpt lat="45.49813" lon="5.53633">
        <ele>614.5</ele>
        <time>2013-06-16T10:36:30Z</time>
      </trkpt>
      <trkpt lat="45.49812" lon="5.53578">
        <ele>609</ele>
        <time>2013-06-16T10:36:58Z</time>
      </trkpt>
      <trkpt lat="45.49816" lon="5.53525">
        <ele>606.5</ele>
        <time>2013-06-16T10:37:21Z</time>
      </trkpt>
      <trkpt lat="45.49819" lon="5.53474">
        <ele>604.59997558594</ele>
        <time>2013-06-16T10:37:45Z</time>
      </trkpt>
      <trkpt lat="45.49839" lon="5.53425">
        <ele>605.80004882812</ele>
        <time>2013-06-16T10:38:12Z</time>
      </trkpt>
      <trkpt lat="45.49859" lon="5.53385">
        <ele>600.90002441406</ele>
        <time>2013-06-16T10:38:37Z</time>
      </trkpt>
      <trkpt lat="45.49872" lon="5.53332">
        <ele>602</ele>
        <time>2013-06-16T10:39:03Z</time>
      </trkpt>
      <trkpt lat="45.49874" lon="5.53284">
        <ele>602</ele>
        <time>2013-06-16T10:39:30Z</time>
      </trkpt>
      <trkpt lat="45.49872" lon="5.53229">
        <ele>608.90002441406</ele>
        <time>2013-06-16T10:39:55Z</time>
      </trkpt>
      <trkpt lat="45.49874" lon="5.53174">
        <ele>600</ele>
        <time>2013-06-16T10:40:24Z</time>
      </trkpt>
      <trkpt lat="45.49876" lon="5.53121">
        <ele>604.19995117188</ele>
        <time>2013-06-16T10:40:49Z</time>
      </trkpt>
      <trkpt lat="45.49881" lon="5.53075">
        <ele>604.90002441406</ele>
        <time>2013-06-16T10:41:12Z</time>
      </trkpt>
      <trkpt lat="45.49896" lon="5.53046">
        <ele>602.80004882812</ele>
        <time>2013-06-16T10:41:35Z</time>
      </trkpt>
      <trkpt lat="45.49913" lon="5.53028">
        <ele>601.40002441406</ele>
        <time>2013-06-16T10:41:58Z</time>
      </trkpt>
      <trkpt lat="45.49942" lon="5.53015">
        <ele>597.80004882812</ele>
        <time>2013-06-16T10:42:21Z</time>
      </trkpt>
      <trkpt lat="45.49975" lon="5.52998">
        <ele>599.19995117188</ele>
        <time>2013-06-16T10:42:43Z</time>
      </trkpt>
      <trkpt lat="45.50005" lon="5.52985">
        <ele>589.09997558594</ele>
        <time>2013-06-16T10:43:06Z</time>
      </trkpt>
      <trkpt lat="45.50047" lon="5.52967">
        <ele>591.80004882812</ele>
        <time>2013-06-16T10:43:34Z</time>
      </trkpt>
      <trkpt lat="45.50099" lon="5.5296">
        <ele>591.19995117188</ele>
        <time>2013-06-16T10:44:08Z</time>
      </trkpt>
      <trkpt lat="45.50125" lon="5.52966">
        <ele>596.09997558594</ele>
        <time>2013-06-16T10:44:34Z</time>
      </trkpt>
      <trkpt lat="45.50138" lon="5.52956">
        <ele>592.19995117188</ele>
        <time>2013-06-16T10:45:30Z</time>
      </trkpt>
      <trkpt lat="45.50174" lon="5.52937">
        <ele>592</ele>
        <time>2013-06-16T10:45:57Z</time>
      </trkpt>
      <trkpt lat="45.50201" lon="5.52901">
        <ele>590.90002441406</ele>
        <time>2013-06-16T10:46:19Z</time>
      </trkpt>
      <trkpt lat="45.50218" lon="5.52854">
        <ele>585</ele>
        <time>2013-06-16T10:46:42Z</time>
      </trkpt>
      <trkpt lat="45.5024" lon="5.52806">
        <ele>588.90002441406</ele>
        <time>2013-06-16T10:47:11Z</time>
      </trkpt>
      <trkpt lat="45.50279" lon="5.528">
        <ele>586.09997558594</ele>
        <time>2013-06-16T10:47:35Z</time>
      </trkpt>
      <trkpt lat="45.50309" lon="5.52809">
        <ele>579</ele>
        <time>2013-06-16T10:47:58Z</time>
      </trkpt>
      <trkpt lat="45.50332" lon="5.52789">
        <ele>569.80004882812</ele>
        <time>2013-06-16T10:48:22Z</time>
      </trkpt>
      <trkpt lat="45.50357" lon="5.5276">
        <ele>575.30004882812</ele>
        <time>2013-06-16T10:48:44Z</time>
      </trkpt>
      <trkpt lat="45.50389" lon="5.52778">
        <ele>567.80004882812</ele>
        <time>2013-06-16T10:49:12Z</time>
      </trkpt>
      <trkpt lat="45.50421" lon="5.52767">
        <ele>562.5</ele>
        <time>2013-06-16T10:49:34Z</time>
      </trkpt>
      <trkpt lat="45.50445" lon="5.52734">
        <ele>563.5</ele>
        <time>2013-06-16T10:49:57Z</time>
      </trkpt>
      <trkpt lat="45.50453" lon="5.52718">
        <ele>566</ele>
        <time>2013-06-16T10:50:19Z</time>
      </trkpt>
      <trkpt lat="45.50452" lon="5.52667">
        <ele>564.90002441406</ele>
        <time>2013-06-16T10:51:07Z</time>
      </trkpt>
      <trkpt lat="45.50465" lon="5.52648">
        <ele>565.40002441406</ele>
        <time>2013-06-16T10:51:33Z</time>
      </trkpt>
      <trkpt lat="45.50482" lon="5.52644">
        <ele>556.69995117188</ele>
        <time>2013-06-16T10:51:55Z</time>
      </trkpt>
      <trkpt lat="45.50526" lon="5.52673">
        <ele>557.19995117188</ele>
        <time>2013-06-16T10:52:26Z</time>
      </trkpt>
      <trkpt lat="45.50564" lon="5.527">
        <ele>553</ele>
        <time>2013-06-16T10:52:56Z</time>
      </trkpt>
      <trkpt lat="45.50594" lon="5.52688">
        <ele>546.80004882812</ele>
        <time>2013-06-16T10:53:18Z</time>
      </trkpt>
      <trkpt lat="45.50625" lon="5.5267">
        <ele>544.5</ele>
        <time>2013-06-16T10:53:40Z</time>
      </trkpt>
      <trkpt lat="45.50648" lon="5.52633">
        <ele>539.40002441406</ele>
        <time>2013-06-16T10:54:03Z</time>
      </trkpt>
      <trkpt lat="45.50676" lon="5.52622">
        <ele>533</ele>
        <time>2013-06-16T10:54:28Z</time>
      </trkpt>
      <trkpt lat="45.50705" lon="5.52634">
        <ele>532</ele>
        <time>2013-06-16T10:54:51Z</time>
      </trkpt>
      <trkpt lat="45.50734" lon="5.52648">
        <ele>528.19995117188</ele>
        <time>2013-06-16T10:55:15Z</time>
      </trkpt>
      <trkpt lat="45.50775" lon="5.52667">
        <ele>529.19995117188</ele>
        <time>2013-06-16T10:55:45Z</time>
      </trkpt>
      <trkpt lat="45.50784" lon="5.52677">
        <ele>523</ele>
        <time>2013-06-16T10:56:19Z</time>
      </trkpt>
      <trkpt lat="45.50791" lon="5.5271">
        <ele>521.5</ele>
        <time>2013-06-16T10:57:50Z</time>
      </trkpt>
      <trkpt lat="45.50796" lon="5.52754">
        <ele>520</ele>
        <time>2013-06-16T10:58:25Z</time>
      </trkpt>
      <trkpt lat="45.50816" lon="5.52808">
        <ele>527.19995117188</ele>
        <time>2013-06-16T10:58:52Z</time>
      </trkpt>
      <trkpt lat="45.5083" lon="5.52855">
        <ele>532.59997558594</ele>
        <time>2013-06-16T10:59:15Z</time>
      </trkpt>
      <trkpt lat="45.50845" lon="5.52899">
        <ele>528.30004882812</ele>
        <time>2013-06-16T10:59:40Z</time>
      </trkpt>
      <trkpt lat="45.50853" lon="5.52915">
        <ele>529.19995117188</ele>
        <time>2013-06-16T11:00:03Z</time>
      </trkpt>
      <trkpt lat="45.50881" lon="5.52959">
        <ele>520.5</ele>
        <time>2013-06-16T11:00:37Z</time>
      </trkpt>
      <trkpt lat="45.50922" lon="5.5299">
        <ele>519.29998779297</ele>
        <time>2013-06-16T11:01:12Z</time>
      </trkpt>
      <trkpt lat="45.5096" lon="5.52973">
        <ele>508.79998779297</ele>
        <time>2013-06-16T11:01:48Z</time>
      </trkpt>
      <trkpt lat="45.51" lon="5.52941">
        <ele>505.5</ele>
        <time>2013-06-16T11:02:19Z</time>
      </trkpt>
      <trkpt lat="45.51042" lon="5.52909">
        <ele>500.20001220703</ele>
        <time>2013-06-16T11:02:54Z</time>
      </trkpt>
      <trkpt lat="45.51066" lon="5.52876">
        <ele>495.40002441406</ele>
        <time>2013-06-16T11:03:16Z</time>
      </trkpt>
      <trkpt lat="45.51099" lon="5.52866">
        <ele>492.40002441406</ele>
        <time>2013-06-16T11:03:39Z</time>
      </trkpt>
      <trkpt lat="45.51133" lon="5.52861">
        <ele>488.59997558594</ele>
        <time>2013-06-16T11:04:04Z</time>
      </trkpt>
      <trkpt lat="45.51164" lon="5.52848">
        <ele>484.20001220703</ele>
        <time>2013-06-16T11:04:29Z</time>
      </trkpt>
      <trkpt lat="45.51192" lon="5.52814">
        <ele>481.09997558594</ele>
        <time>2013-06-16T11:04:52Z</time>
      </trkpt>
      <trkpt lat="45.51214" lon="5.52793">
        <ele>471.20001220703</ele>
        <time>2013-06-16T11:05:15Z</time>
      </trkpt>
      <trkpt lat="45.51243" lon="5.52761">
        <ele>469.5</ele>
        <time>2013-06-16T11:05:40Z</time>
      </trkpt>
      <trkpt lat="45.51282" lon="5.52721">
        <ele>468.5</ele>
        <time>2013-06-16T11:06:14Z</time>
      </trkpt>
      <trkpt lat="45.51324" lon="5.52683">
        <ele>460</ele>
        <time>2013-06-16T11:06:48Z</time>
      </trkpt>
      <trkpt lat="45.51365" lon="5.52648">
        <ele>458.79998779297</ele>
        <time>2013-06-16T11:07:21Z</time>
      </trkpt>
      <trkpt lat="45.5138" lon="5.52609">
        <ele>456.79998779297</ele>
        <time>2013-06-16T11:07:51Z</time>
      </trkpt>
      <trkpt lat="45.51397" lon="5.52562">
        <ele>453.09997558594</ele>
        <time>2013-06-16T11:08:18Z</time>
      </trkpt>
      <trkpt lat="45.51434" lon="5.52514">
        <ele>448.5</ele>
        <time>2013-06-16T11:08:54Z</time>
      </trkpt>
      <trkpt lat="45.51487" lon="5.5251">
        <ele>444.59997558594</ele>
        <time>2013-06-16T11:09:27Z</time>
      </trkpt>
      <trkpt lat="45.516" lon="5.52515">
        <ele>442.29998779297</ele>
        <time>2013-06-16T11:10:02Z</time>
      </trkpt>
      <trkpt lat="45.51682" lon="5.52521">
        <ele>438.5</ele>
        <time>2013-06-16T11:10:32Z</time>
      </trkpt>
      <trkpt lat="45.51768" lon="5.52525">
        <ele>437.70001220703</ele>
        <time>2013-06-16T11:11:03Z</time>
      </trkpt>
      <trkpt lat="45.51844" lon="5.52521">
        <ele>431.59997558594</ele>
        <time>2013-06-16T11:11:29Z</time>
      </trkpt>
      <trkpt lat="45.51946" lon="5.52472">
        <ele>438.90002441406</ele>
        <time>2013-06-16T11:12:04Z</time>
      </trkpt>
      <trkpt lat="45.51947" lon="5.5243">
        <ele>445</ele>
        <time>2013-06-16T11:12:27Z</time>
      </trkpt>
      <trkpt lat="45.51939" lon="5.52385">
        <ele>447.40002441406</ele>
        <time>2013-06-16T11:12:50Z</time>
      </trkpt>
      <trkpt lat="45.51925" lon="5.52332">
        <ele>448.70001220703</ele>
        <time>2013-06-16T11:13:15Z</time>
      </trkpt>
      <trkpt lat="45.51917" lon="5.52279">
        <ele>445.90002441406</ele>
        <time>2013-06-16T11:14:07Z</time>
      </trkpt>
      <trkpt lat="45.51915" lon="5.52229">
        <ele>449.29998779297</ele>
        <time>2013-06-16T11:14:29Z</time>
      </trkpt>
      <trkpt lat="45.51905" lon="5.52189">
        <ele>451.90002441406</ele>
        <time>2013-06-16T11:14:55Z</time>
      </trkpt>
      <trkpt lat="45.51908" lon="5.52124">
        <ele>453.5</ele>
        <time>2013-06-16T11:15:21Z</time>
      </trkpt>
      <trkpt lat="45.51898" lon="5.52082">
        <ele>457.40002441406</ele>
        <time>2013-06-16T11:15:44Z</time>
      </trkpt>
      <trkpt lat="45.51896" lon="5.52045">
        <ele>452.70001220703</ele>
        <time>2013-06-16T11:16:07Z</time>
      </trkpt>
      <trkpt lat="45.51888" lon="5.52005">
        <ele>445.40002441406</ele>
        <time>2013-06-16T11:16:31Z</time>
      </trkpt>
      <trkpt lat="45.51877" lon="5.51921">
        <ele>456.29998779297</ele>
        <time>2013-06-16T11:17:04Z</time>
      </trkpt>
      <trkpt lat="45.51868" lon="5.51889">
        <ele>436.70001220703</ele>
        <time>2013-06-16T11:17:27Z</time>
      </trkpt>
      <trkpt lat="45.51853" lon="5.51849">
        <ele>450.20001220703</ele>
        <time>2013-06-16T11:17:52Z</time>
      </trkpt>
      <trkpt lat="45.51828" lon="5.51799">
        <ele>443.5</ele>
        <time>2013-06-16T11:18:20Z</time>
      </trkpt>
      <trkpt lat="45.51809" lon="5.5176">
        <ele>440.90002441406</ele>
        <time>2013-06-16T11:18:42Z</time>
      </trkpt>
      <trkpt lat="45.51791" lon="5.51721">
        <ele>437</ele>
        <time>2013-06-16T11:19:05Z</time>
      </trkpt>
      <trkpt lat="45.51775" lon="5.51679">
        <ele>432.40002441406</ele>
        <time>2013-06-16T11:19:28Z</time>
      </trkpt>
      <trkpt lat="45.51756" lon="5.51643">
        <ele>441.70001220703</ele>
        <time>2013-06-16T11:19:51Z</time>
      </trkpt>
      <trkpt lat="45.51733" lon="5.51607">
        <ele>435.59997558594</ele>
        <time>2013-06-16T11:20:14Z</time>
      </trkpt>
      <trkpt lat="45.51713" lon="5.51565">
        <ele>438.20001220703</ele>
        <time>2013-06-16T11:20:39Z</time>
      </trkpt>
      <trkpt lat="45.51707" lon="5.51522">
        <ele>444.5</ele>
        <time>2013-06-16T11:21:02Z</time>
      </trkpt>
      <trkpt lat="45.517" lon="5.51471">
        <ele>447.09997558594</ele>
        <time>2013-06-16T11:21:25Z</time>
      </trkpt>
      <trkpt lat="45.51693" lon="5.51431">
        <ele>441.79998779297</ele>
        <time>2013-06-16T11:21:48Z</time>
      </trkpt>
      <trkpt lat="45.51682" lon="5.51378">
        <ele>440</ele>
        <time>2013-06-16T11:22:10Z</time>
      </trkpt>
      <trkpt lat="45.51669" lon="5.51328">
        <ele>444.59997558594</ele>
        <time>2013-06-16T11:22:33Z</time>
      </trkpt>
      <trkpt lat="45.51666" lon="5.51294">
        <ele>451.29998779297</ele>
        <time>2013-06-16T11:22:56Z</time>
      </trkpt>
      <trkpt lat="45.51655" lon="5.51253">
        <ele>450</ele>
        <time>2013-06-16T11:23:19Z</time>
      </trkpt>
      <trkpt lat="45.51637" lon="5.51207">
        <ele>446.40002441406</ele>
        <time>2013-06-16T11:23:47Z</time>
      </trkpt>
      <trkpt lat="45.51621" lon="5.51172">
        <ele>454</ele>
        <time>2013-06-16T11:24:10Z</time>
      </trkpt>
      <trkpt lat="45.51597" lon="5.51175">
        <ele>450.5</ele>
        <time>2013-06-16T11:24:33Z</time>
      </trkpt>
      <trkpt lat="45.51569" lon="5.51198">
        <ele>448.70001220703</ele>
        <time>2013-06-16T11:24:59Z</time>
      </trkpt>
      <trkpt lat="45.51536" lon="5.51223">
        <ele>451.90002441406</ele>
        <time>2013-06-16T11:25:30Z</time>
      </trkpt>
      <trkpt lat="45.51502" lon="5.51236">
        <ele>439.70001220703</ele>
        <time>2013-06-16T11:25:53Z</time>
      </trkpt>
      <trkpt lat="45.51469" lon="5.51267">
        <ele>452.40002441406</ele>
        <time>2013-06-16T11:26:20Z</time>
      </trkpt>
      <trkpt lat="45.51444" lon="5.51284">
        <ele>448.40002441406</ele>
        <time>2013-06-16T11:26:43Z</time>
      </trkpt>
      <trkpt lat="45.51426" lon="5.51286">
        <ele>434</ele>
        <time>2013-06-16T11:27:27Z</time>
      </trkpt>
      <trkpt lat="45.51407" lon="5.51245">
        <ele>440.20001220703</ele>
        <time>2013-06-16T11:27:51Z</time>
      </trkpt>
      <trkpt lat="45.51387" lon="5.51198">
        <ele>440.29998779297</ele>
        <time>2013-06-16T11:28:16Z</time>
      </trkpt>
      <trkpt lat="45.51373" lon="5.51156">
        <ele>437.59997558594</ele>
        <time>2013-06-16T11:28:39Z</time>
      </trkpt>
      <trkpt lat="45.51361" lon="5.5112">
        <ele>437</ele>
        <time>2013-06-16T11:29:03Z</time>
      </trkpt>
      <trkpt lat="45.51299" lon="5.50927">
        <ele>439.09997558594</ele>
        <time>2013-06-16T11:29:38Z</time>
      </trkpt>
      <trkpt lat="45.51254" lon="5.50846">
        <ele>438.90002441406</ele>
        <time>2013-06-16T11:30:03Z</time>
      </trkpt>
      <trkpt lat="45.51224" lon="5.50872">
        <ele>433.29998779297</ele>
        <time>2013-06-16T11:30:30Z</time>
      </trkpt>
      <trkpt lat="45.51183" lon="5.50905">
        <ele>444.59997558594</ele>
        <time>2013-06-16T11:31:04Z</time>
      </trkpt>
      <trkpt lat="45.51144" lon="5.5093">
        <ele>443.40002441406</ele>
        <time>2013-06-16T11:31:30Z</time>
      </trkpt>
      <trkpt lat="45.51129" lon="5.50945">
        <ele>440.09997558594</ele>
        <time>2013-06-16T11:32:05Z</time>
      </trkpt>
      <trkpt lat="45.51104" lon="5.50878">
        <ele>436.5</ele>
        <time>2013-06-16T11:32:38Z</time>
      </trkpt>
      <trkpt lat="45.51132" lon="5.50926">
        <ele>429.90002441406</ele>
        <time>2013-06-16T11:33:41Z</time>
      </trkpt>
      <trkpt lat="45.51159" lon="5.50909">
        <ele>440.29998779297</ele>
        <time>2013-06-16T11:34:05Z</time>
      </trkpt>
      <trkpt lat="45.51206" lon="5.50867">
        <ele>449.90002441406</ele>
        <time>2013-06-16T11:34:37Z</time>
      </trkpt>
      <trkpt lat="45.51247" lon="5.50846">
        <ele>442.90002441406</ele>
        <time>2013-06-16T11:35:08Z</time>
      </trkpt>
      <trkpt lat="45.51246" lon="5.50816">
        <ele>436.20001220703</ele>
        <time>2013-06-16T11:35:41Z</time>
      </trkpt>
      <trkpt lat="45.51223" lon="5.50768">
        <ele>439.59997558594</ele>
        <time>2013-06-16T11:36:12Z</time>
      </trkpt>
      <trkpt lat="45.51225" lon="5.50744">
        <ele>449.70001220703</ele>
        <time>2013-06-16T11:36:39Z</time>
      </trkpt>
      <trkpt lat="45.51215" lon="5.50705">
        <ele>438.09997558594</ele>
        <time>2013-06-16T11:37:13Z</time>
      </trkpt>
      <trkpt lat="45.512" lon="5.50643">
        <ele>445.90002441406</ele>
        <time>2013-06-16T11:37:42Z</time>
      </trkpt>
      <trkpt lat="45.51221" lon="5.50688">
        <ele>440.59997558594</ele>
        <time>2013-06-16T11:38:42Z</time>
      </trkpt>
      <trkpt lat="45.51234" lon="5.50683">
        <ele>453.20001220703</ele>
        <time>2013-06-16T11:39:10Z</time>
      </trkpt>
      <trkpt lat="45.51251" lon="5.50699">
        <ele>441.90002441406</ele>
        <time>2013-06-16T11:39:37Z</time>
      </trkpt>
      <trkpt lat="45.51218" lon="5.50712">
        <ele>437.20001220703</ele>
        <time>2013-06-16T11:40:11Z</time>
      </trkpt>
      <trkpt lat="45.5125" lon="5.50755">
        <ele>445.29998779297</ele>
        <time>2013-06-16T11:40:39Z</time>
      </trkpt>
      <trkpt lat="45.51251" lon="5.50813">
        <ele>437.59997558594</ele>
        <time>2013-06-16T11:41:09Z</time>
      </trkpt>
      <trkpt lat="45.5127" lon="5.50833">
        <ele>451.59997558594</ele>
        <time>2013-06-16T11:41:36Z</time>
      </trkpt>
      <trkpt lat="45.51293" lon="5.50812">
        <ele>450.09997558594</ele>
        <time>2013-06-16T11:42:00Z</time>
      </trkpt>
      <trkpt lat="45.51338" lon="5.50781">
        <ele>449.79998779297</ele>
        <time>2013-06-16T11:42:23Z</time>
      </trkpt>
      <trkpt lat="45.51383" lon="5.5075">
        <ele>452.90002441406</ele>
        <time>2013-06-16T11:42:53Z</time>
      </trkpt>
      <trkpt lat="45.51388" lon="5.50738">
        <ele>443.59997558594</ele>
        <time>2013-06-16T11:43:22Z</time>
      </trkpt>
      <trkpt lat="45.51424" lon="5.50727">
        <ele>446.09997558594</ele>
        <time>2013-06-16T11:44:43Z</time>
      </trkpt>
      <trkpt lat="45.51436" lon="5.50689">
        <ele>453</ele>
        <time>2013-06-16T11:45:07Z</time>
      </trkpt>
      <trkpt lat="45.51474" lon="5.50649">
        <ele>455.70001220703</ele>
        <time>2013-06-16T11:45:41Z</time>
      </trkpt>
      <trkpt lat="45.51455" lon="5.50611">
        <ele>464.79998779297</ele>
        <time>2013-06-16T11:46:15Z</time>
      </trkpt>
      <trkpt lat="45.51443" lon="5.50569">
        <ele>450.59997558594</ele>
        <time>2013-06-16T11:46:38Z</time>
      </trkpt>
      <trkpt lat="45.51438" lon="5.50534">
        <ele>449.79998779297</ele>
        <time>2013-06-16T11:47:02Z</time>
      </trkpt>
      <trkpt lat="45.51415" lon="5.50481">
        <ele>455.09997558594</ele>
        <time>2013-06-16T11:47:31Z</time>
      </trkpt>
      <trkpt lat="45.51408" lon="5.5043">
        <ele>449.79998779297</ele>
        <time>2013-06-16T11:47:58Z</time>
      </trkpt>
      <trkpt lat="45.51398" lon="5.50387">
        <ele>447.90002441406</ele>
        <time>2013-06-16T11:48:20Z</time>
      </trkpt>
      <trkpt lat="45.5139" lon="5.50342">
        <ele>445.90002441406</ele>
        <time>2013-06-16T11:48:47Z</time>
      </trkpt>
      <trkpt lat="45.51379" lon="5.50294">
        <ele>446.79998779297</ele>
        <time>2013-06-16T11:49:15Z</time>
      </trkpt>
      <trkpt lat="45.51354" lon="5.50242">
        <ele>447.79998779297</ele>
        <time>2013-06-16T11:49:47Z</time>
      </trkpt>
      <trkpt lat="45.51324" lon="5.50187">
        <ele>444.20001220703</ele>
        <time>2013-06-16T11:50:20Z</time>
      </trkpt>
      <trkpt lat="45.51297" lon="5.50156">
        <ele>440.40002441406</ele>
        <time>2013-06-16T11:50:48Z</time>
      </trkpt>
      <trkpt lat="45.51266" lon="5.50131">
        <ele>450.09997558594</ele>
        <time>2013-06-16T11:51:14Z</time>
      </trkpt>
      <trkpt lat="45.51232" lon="5.50103">
        <ele>448.29998779297</ele>
        <time>2013-06-16T11:51:43Z</time>
      </trkpt>
      <trkpt lat="45.51195" lon="5.50071">
        <ele>441.79998779297</ele>
        <time>2013-06-16T11:52:14Z</time>
      </trkpt>
      <trkpt lat="45.51159" lon="5.50057">
        <ele>450.59997558594</ele>
        <time>2013-06-16T11:52:42Z</time>
      </trkpt>
      <trkpt lat="45.51135" lon="5.50099">
        <ele>441.5</ele>
        <time>2013-06-16T11:53:16Z</time>
      </trkpt>
      <trkpt lat="45.51101" lon="5.50192">
        <ele>441.20001220703</ele>
        <time>2013-06-16T11:53:45Z</time>
      </trkpt>
      <trkpt lat="45.50991" lon="5.50153">
        <ele>441.40002441406</ele>
        <time>2013-06-16T11:54:15Z</time>
      </trkpt>
      <trkpt lat="45.50992" lon="5.50109">
        <ele>442.59997558594</ele>
        <time>2013-06-16T11:54:43Z</time>
      </trkpt>
      <trkpt lat="45.51043" lon="5.4996">
        <ele>446.90002441406</ele>
        <time>2013-06-16T11:55:08Z</time>
      </trkpt>
      <trkpt lat="45.51026" lon="5.4993">
        <ele>451.09997558594</ele>
        <time>2013-06-16T11:55:31Z</time>
      </trkpt>
      <trkpt lat="45.51002" lon="5.49896">
        <ele>449.70001220703</ele>
        <time>2013-06-16T11:55:53Z</time>
      </trkpt>
      <trkpt lat="45.50977" lon="5.49865">
        <ele>450.09997558594</ele>
        <time>2013-06-16T11:56:16Z</time>
      </trkpt>
      <trkpt lat="45.50954" lon="5.49833">
        <ele>451.5</ele>
        <time>2013-06-16T11:56:40Z</time>
      </trkpt>
      <trkpt lat="45.50927" lon="5.49838">
        <ele>460.59997558594</ele>
        <time>2013-06-16T11:57:03Z</time>
      </trkpt>
      <trkpt lat="45.50906" lon="5.49857">
        <ele>454.59997558594</ele>
        <time>2013-06-16T11:57:26Z</time>
      </trkpt>
      <trkpt lat="45.50875" lon="5.49899">
        <ele>453.5</ele>
        <time>2013-06-16T11:57:55Z</time>
      </trkpt>
      <trkpt lat="45.50849" lon="5.49939">
        <ele>448.20001220703</ele>
        <time>2013-06-16T11:58:25Z</time>
      </trkpt>
      <trkpt lat="45.50817" lon="5.49982">
        <ele>453.79998779297</ele>
        <time>2013-06-16T11:58:51Z</time>
      </trkpt>
      <trkpt lat="45.50781" lon="5.5004">
        <ele>455.70001220703</ele>
        <time>2013-06-16T11:59:24Z</time>
      </trkpt>
      <trkpt lat="45.50757" lon="5.50063">
        <ele>440.20001220703</ele>
        <time>2013-06-16T11:59:51Z</time>
      </trkpt>
      <trkpt lat="45.50725" lon="5.501">
        <ele>440.40002441406</ele>
        <time>2013-06-16T12:00:17Z</time>
      </trkpt>
      <trkpt lat="45.50703" lon="5.50058">
        <ele>435.70001220703</ele>
        <time>2013-06-16T12:00:41Z</time>
      </trkpt>
      <trkpt lat="45.50614" lon="5.49876">
        <ele>422.70001220703</ele>
        <time>2013-06-16T12:01:15Z</time>
      </trkpt>
      <trkpt lat="45.50531" lon="5.49725">
        <ele>432.09997558594</ele>
        <time>2013-06-16T12:01:38Z</time>
      </trkpt>
      <trkpt lat="45.50502" lon="5.49671">
        <ele>433.29998779297</ele>
        <time>2013-06-16T12:02:03Z</time>
      </trkpt>
      <trkpt lat="45.50479" lon="5.49626">
        <ele>436.79998779297</ele>
        <time>2013-06-16T12:02:30Z</time>
      </trkpt>
      <trkpt lat="45.50415" lon="5.49479">
        <ele>438.59997558594</ele>
        <time>2013-06-16T12:03:04Z</time>
      </trkpt>
      <trkpt lat="45.50364" lon="5.49431">
        <ele>438.09997558594</ele>
        <time>2013-06-16T12:03:38Z</time>
      </trkpt>
      <trkpt lat="45.50335" lon="5.49399">
        <ele>437.29998779297</ele>
        <time>2013-06-16T12:04:04Z</time>
      </trkpt>
      <trkpt lat="45.50314" lon="5.49382">
        <ele>434.40002441406</ele>
        <time>2013-06-16T12:04:26Z</time>
      </trkpt>
      <trkpt lat="45.50277" lon="5.49359">
        <ele>434.5</ele>
        <time>2013-06-16T12:04:56Z</time>
      </trkpt>
      <trkpt lat="45.5024" lon="5.49344">
        <ele>444</ele>
        <time>2013-06-16T12:05:30Z</time>
      </trkpt>
      <trkpt lat="45.50205" lon="5.49313">
        <ele>448.79998779297</ele>
        <time>2013-06-16T12:06:05Z</time>
      </trkpt>
      <trkpt lat="45.50182" lon="5.49308">
        <ele>455.5</ele>
        <time>2013-06-16T12:06:32Z</time>
      </trkpt>
      <trkpt lat="45.50171" lon="5.49326">
        <ele>449.70001220703</ele>
        <time>2013-06-16T12:07:31Z</time>
      </trkpt>
      <trkpt lat="45.50147" lon="5.49366">
        <ele>445.59997558594</ele>
        <time>2013-06-16T12:07:58Z</time>
      </trkpt>
      <trkpt lat="45.5012" lon="5.49341">
        <ele>435.90002441406</ele>
        <time>2013-06-16T12:08:22Z</time>
      </trkpt>
      <trkpt lat="45.50086" lon="5.49297">
        <ele>428.40002441406</ele>
        <time>2013-06-16T12:08:54Z</time>
      </trkpt>
      <trkpt lat="45.50059" lon="5.49254">
        <ele>442.09997558594</ele>
        <time>2013-06-16T12:09:23Z</time>
      </trkpt>
      <trkpt lat="45.50008" lon="5.49141">
        <ele>427.29998779297</ele>
        <time>2013-06-16T12:09:58Z</time>
      </trkpt>
      <trkpt lat="45.49918" lon="5.48956">
        <ele>439.09997558594</ele>
        <time>2013-06-16T12:10:30Z</time>
      </trkpt>
      <trkpt lat="45.49855" lon="5.48852">
        <ele>433.29998779297</ele>
        <time>2013-06-16T12:10:56Z</time>
      </trkpt>
      <trkpt lat="45.49826" lon="5.4882">
        <ele>433</ele>
        <time>2013-06-16T12:11:21Z</time>
      </trkpt>
      <trkpt lat="45.49799" lon="5.48785">
        <ele>436.5</ele>
        <time>2013-06-16T12:11:45Z</time>
      </trkpt>
      <trkpt lat="45.49763" lon="5.48747">
        <ele>435.5</ele>
        <time>2013-06-16T12:12:19Z</time>
      </trkpt>
      <trkpt lat="45.4972" lon="5.4871">
        <ele>454.29998779297</ele>
        <time>2013-06-16T12:12:53Z</time>
      </trkpt>
      <trkpt lat="45.49697" lon="5.48664">
        <ele>442.59997558594</ele>
        <time>2013-06-16T12:13:18Z</time>
      </trkpt>
      <trkpt lat="45.49671" lon="5.48633">
        <ele>434.40002441406</ele>
        <time>2013-06-16T12:13:41Z</time>
      </trkpt>
      <trkpt lat="45.49635" lon="5.48588">
        <ele>438.59997558594</ele>
        <time>2013-06-16T12:14:15Z</time>
      </trkpt>
      <trkpt lat="45.49597" lon="5.48544">
        <ele>431.90002441406</ele>
        <time>2013-06-16T12:14:49Z</time>
      </trkpt>
      <trkpt lat="45.49564" lon="5.48483">
        <ele>438.90002441406</ele>
        <time>2013-06-16T12:15:24Z</time>
      </trkpt>
      <trkpt lat="45.49563" lon="5.4845">
        <ele>436.90002441406</ele>
        <time>2013-06-16T12:15:47Z</time>
      </trkpt>
      <trkpt lat="45.49594" lon="5.48433">
        <ele>439.70001220703</ele>
        <time>2013-06-16T12:16:12Z</time>
      </trkpt>
      <trkpt lat="45.49628" lon="5.48413">
        <ele>444</ele>
        <time>2013-06-16T12:16:35Z</time>
      </trkpt>
      <trkpt lat="45.49664" lon="5.48426">
        <ele>442.20001220703</ele>
        <time>2013-06-16T12:17:02Z</time>
      </trkpt>
      <trkpt lat="45.49703" lon="5.48436">
        <ele>440.59997558594</ele>
        <time>2013-06-16T12:17:31Z</time>
      </trkpt>
      <trkpt lat="45.4973" lon="5.48409">
        <ele>442.79998779297</ele>
        <time>2013-06-16T12:17:56Z</time>
      </trkpt>
      <trkpt lat="45.49753" lon="5.48375">
        <ele>448.59997558594</ele>
        <time>2013-06-16T12:18:21Z</time>
      </trkpt>
      <trkpt lat="45.49775" lon="5.4833">
        <ele>449.40002441406</ele>
        <time>2013-06-16T12:18:50Z</time>
      </trkpt>
      <trkpt lat="45.49781" lon="5.48282">
        <ele>457.40002441406</ele>
        <time>2013-06-16T12:19:23Z</time>
      </trkpt>
      <trkpt lat="45.49751" lon="5.48261">
        <ele>448.29998779297</ele>
        <time>2013-06-16T12:19:50Z</time>
      </trkpt>
      <trkpt lat="45.49718" lon="5.48247">
        <ele>448.90002441406</ele>
        <time>2013-06-16T12:20:16Z</time>
      </trkpt>
      <trkpt lat="45.49687" lon="5.48228">
        <ele>451.90002441406</ele>
        <time>2013-06-16T12:20:43Z</time>
      </trkpt>
      <trkpt lat="45.49661" lon="5.48209">
        <ele>447</ele>
        <time>2013-06-16T12:21:06Z</time>
      </trkpt>
      <trkpt lat="45.49632" lon="5.48156">
        <ele>443.5</ele>
        <time>2013-06-16T12:21:40Z</time>
      </trkpt>
      <trkpt lat="45.4961" lon="5.48117">
        <ele>444</ele>
        <time>2013-06-16T12:22:05Z</time>
      </trkpt>
      <trkpt lat="45.49588" lon="5.48061">
        <ele>445.09997558594</ele>
        <time>2013-06-16T12:22:39Z</time>
      </trkpt>
      <trkpt lat="45.4957" lon="5.48021">
        <ele>446.79998779297</ele>
        <time>2013-06-16T12:23:08Z</time>
      </trkpt>
      <trkpt lat="45.49548" lon="5.47967">
        <ele>442.5</ele>
        <time>2013-06-16T12:23:41Z</time>
      </trkpt>
      <trkpt lat="45.49523" lon="5.47904">
        <ele>443.70001220703</ele>
        <time>2013-06-16T12:24:15Z</time>
      </trkpt>
      <trkpt lat="45.49496" lon="5.47847">
        <ele>440.70001220703</ele>
        <time>2013-06-16T12:24:49Z</time>
      </trkpt>
      <trkpt lat="45.49478" lon="5.47809">
        <ele>438.70001220703</ele>
        <time>2013-06-16T12:25:13Z</time>
      </trkpt>
      <trkpt lat="45.49448" lon="5.47744">
        <ele>441.79998779297</ele>
        <time>2013-06-16T12:25:48Z</time>
      </trkpt>
      <trkpt lat="45.49422" lon="5.47689">
        <ele>444.5</ele>
        <time>2013-06-16T12:26:20Z</time>
      </trkpt>
      <trkpt lat="45.49396" lon="5.4766">
        <ele>438.40002441406</ele>
        <time>2013-06-16T12:26:45Z</time>
      </trkpt>
      <trkpt lat="45.49363" lon="5.47646">
        <ele>439.20001220703</ele>
        <time>2013-06-16T12:27:09Z</time>
      </trkpt>
      <trkpt lat="45.49331" lon="5.47633">
        <ele>445.70001220703</ele>
        <time>2013-06-16T12:27:32Z</time>
      </trkpt>
      <trkpt lat="45.49291" lon="5.47639">
        <ele>454</ele>
        <time>2013-06-16T12:27:57Z</time>
      </trkpt>
      <trkpt lat="45.49255" lon="5.47628">
        <ele>453.5</ele>
        <time>2013-06-16T12:28:23Z</time>
      </trkpt>
      <trkpt lat="45.4922" lon="5.47614">
        <ele>447.5</ele>
        <time>2013-06-16T12:28:50Z</time>
      </trkpt>
      <trkpt lat="45.49171" lon="5.47601">
        <ele>448</ele>
        <time>2013-06-16T12:29:25Z</time>
      </trkpt>
      <trkpt lat="45.49127" lon="5.47599">
        <ele>456</ele>
        <time>2013-06-16T12:29:56Z</time>
      </trkpt>
      <trkpt lat="45.49091" lon="5.47556">
        <ele>447</ele>
        <time>2013-06-16T12:30:30Z</time>
      </trkpt>
      <trkpt lat="45.49056" lon="5.47543">
        <ele>462</ele>
        <time>2013-06-16T12:30:58Z</time>
      </trkpt>
      <trkpt lat="45.4902" lon="5.47514">
        <ele>456.5</ele>
        <time>2013-06-16T12:31:32Z</time>
      </trkpt>
      <trkpt lat="45.48982" lon="5.47482">
        <ele>453.5</ele>
        <time>2013-06-16T12:32:02Z</time>
      </trkpt>
      <trkpt lat="45.48976" lon="5.47465">
        <ele>444.20001220703</ele>
        <time>2013-06-16T12:32:37Z</time>
      </trkpt>
      <trkpt lat="45.4895" lon="5.47438">
        <ele>447.40002441406</ele>
        <time>2013-06-16T12:33:07Z</time>
      </trkpt>
      <trkpt lat="45.48941" lon="5.47417">
        <ele>448.29998779297</ele>
        <time>2013-06-16T12:33:32Z</time>
      </trkpt>
      <trkpt lat="45.48922" lon="5.47383">
        <ele>442.20001220703</ele>
        <time>2013-06-16T12:33:55Z</time>
      </trkpt>
      <trkpt lat="45.4889" lon="5.47343">
        <ele>448.09997558594</ele>
        <time>2013-06-16T12:34:23Z</time>
      </trkpt>
      <trkpt lat="45.48849" lon="5.47388">
        <ele>461.59997558594</ele>
        <time>2013-06-16T12:34:57Z</time>
      </trkpt>
      <trkpt lat="45.48834" lon="5.47437">
        <ele>459.79998779297</ele>
        <time>2013-06-16T12:35:27Z</time>
      </trkpt>
      <trkpt lat="45.488" lon="5.47469">
        <ele>457.70001220703</ele>
        <time>2013-06-16T12:35:52Z</time>
      </trkpt>
      <trkpt lat="45.48774" lon="5.47491">
        <ele>455</ele>
        <time>2013-06-16T12:36:17Z</time>
      </trkpt>
      <trkpt lat="45.48744" lon="5.4751">
        <ele>462.90002441406</ele>
        <time>2013-06-16T12:36:39Z</time>
      </trkpt>
      <trkpt lat="45.48717" lon="5.47518">
        <ele>454.90002441406</ele>
        <time>2013-06-16T12:37:01Z</time>
      </trkpt>
      <trkpt lat="45.48683" lon="5.47494">
        <ele>452.20001220703</ele>
        <time>2013-06-16T12:37:35Z</time>
      </trkpt>
      <trkpt lat="45.48653" lon="5.47445">
        <ele>454.59997558594</ele>
        <time>2013-06-16T12:38:06Z</time>
      </trkpt>
      <trkpt lat="45.48631" lon="5.47396">
        <ele>450.70001220703</ele>
        <time>2013-06-16T12:38:38Z</time>
      </trkpt>
      <trkpt lat="45.48599" lon="5.47348">
        <ele>449.09997558594</ele>
        <time>2013-06-16T12:39:09Z</time>
      </trkpt>
      <trkpt lat="45.48576" lon="5.47309">
        <ele>451.40002441406</ele>
        <time>2013-06-16T12:39:38Z</time>
      </trkpt>
      <trkpt lat="45.48553" lon="5.47287">
        <ele>448.70001220703</ele>
        <time>2013-06-16T12:40:03Z</time>
      </trkpt>
      <trkpt lat="45.4853" lon="5.47318">
        <ele>450.79998779297</ele>
        <time>2013-06-16T12:40:26Z</time>
      </trkpt>
      <trkpt lat="45.48499" lon="5.47353">
        <ele>458.59997558594</ele>
        <time>2013-06-16T12:40:56Z</time>
      </trkpt>
      <trkpt lat="45.48475" lon="5.47319">
        <ele>452.59997558594</ele>
        <time>2013-06-16T12:41:22Z</time>
      </trkpt>
      <trkpt lat="45.48447" lon="5.47275">
        <ele>455.90002441406</ele>
        <time>2013-06-16T12:41:51Z</time>
      </trkpt>
      <trkpt lat="45.48418" lon="5.47241">
        <ele>455.59997558594</ele>
        <time>2013-06-16T12:42:19Z</time>
      </trkpt>
      <trkpt lat="45.48391" lon="5.47224">
        <ele>457.5</ele>
        <time>2013-06-16T12:42:42Z</time>
      </trkpt>
      <trkpt lat="45.48374" lon="5.47191">
        <ele>453.59997558594</ele>
        <time>2013-06-16T12:43:04Z</time>
      </trkpt>
      <trkpt lat="45.48345" lon="5.47149">
        <ele>454.29998779297</ele>
        <time>2013-06-16T12:43:33Z</time>
      </trkpt>
      <trkpt lat="45.48312" lon="5.47107">
        <ele>465.79998779297</ele>
        <time>2013-06-16T12:44:01Z</time>
      </trkpt>
      <trkpt lat="45.48323" lon="5.47096">
        <ele>458.79998779297</ele>
        <time>2013-06-16T12:45:02Z</time>
      </trkpt>
      <trkpt lat="45.48338" lon="5.47072">
        <ele>467.59997558594</ele>
        <time>2013-06-16T12:45:31Z</time>
      </trkpt>
      <trkpt lat="45.48345" lon="5.47059">
        <ele>455.20001220703</ele>
        <time>2013-06-16T12:45:56Z</time>
      </trkpt>
      <trkpt lat="45.48371" lon="5.47023">
        <ele>454.40002441406</ele>
        <time>2013-06-16T12:46:22Z</time>
      </trkpt>
      <trkpt lat="45.48395" lon="5.4698">
        <ele>449.09997558594</ele>
        <time>2013-06-16T12:46:48Z</time>
      </trkpt>
      <trkpt lat="45.48415" lon="5.46946">
        <ele>444.70001220703</ele>
        <time>2013-06-16T12:47:11Z</time>
      </trkpt>
      <trkpt lat="45.48441" lon="5.46896">
        <ele>442.5</ele>
        <time>2013-06-16T12:47:40Z</time>
      </trkpt>
      <trkpt lat="45.48356" lon="5.46831">
        <ele>440.5</ele>
        <time>2013-06-16T12:48:03Z</time>
      </trkpt>
      <trkpt lat="45.48225" lon="5.46769">
        <ele>443</ele>
        <time>2013-06-16T12:48:29Z</time>
      </trkpt>
      <trkpt lat="45.48136" lon="5.46741">
        <ele>450.40002441406</ele>
        <time>2013-06-16T12:48:54Z</time>
      </trkpt>
      <trkpt lat="45.48133" lon="5.46696">
        <ele>449.70001220703</ele>
        <time>2013-06-16T12:49:17Z</time>
      </trkpt>
      <trkpt lat="45.48129" lon="5.4665">
        <ele>446.40002441406</ele>
        <time>2013-06-16T12:49:40Z</time>
      </trkpt>
      <trkpt lat="45.48099" lon="5.46607">
        <ele>444.40002441406</ele>
        <time>2013-06-16T12:50:09Z</time>
      </trkpt>
      <trkpt lat="45.48072" lon="5.46572">
        <ele>444.59997558594</ele>
        <time>2013-06-16T12:50:34Z</time>
      </trkpt>
      <trkpt lat="45.48048" lon="5.46544">
        <ele>444.20001220703</ele>
        <time>2013-06-16T12:50:57Z</time>
      </trkpt>
      <trkpt lat="45.48025" lon="5.46514">
        <ele>442</ele>
        <time>2013-06-16T12:51:20Z</time>
      </trkpt>
      <trkpt lat="45.47992" lon="5.46471">
        <ele>440.5</ele>
        <time>2013-06-16T12:51:51Z</time>
      </trkpt>
      <trkpt lat="45.47969" lon="5.46443">
        <ele>439.5</ele>
        <time>2013-06-16T12:52:16Z</time>
      </trkpt>
      <trkpt lat="45.47931" lon="5.464">
        <ele>441.5</ele>
        <time>2013-06-16T12:52:50Z</time>
      </trkpt>
      <trkpt lat="45.47805" lon="5.46237">
        <ele>435.59997558594</ele>
        <time>2013-06-16T12:53:25Z</time>
      </trkpt>
      <trkpt lat="45.47751" lon="5.46179">
        <ele>447.29998779297</ele>
        <time>2013-06-16T12:54:00Z</time>
      </trkpt>
      <trkpt lat="45.47718" lon="5.46134">
        <ele>440</ele>
        <time>2013-06-16T12:54:28Z</time>
      </trkpt>
      <trkpt lat="45.47692" lon="5.461">
        <ele>438.5</ele>
        <time>2013-06-16T12:54:53Z</time>
      </trkpt>
      <trkpt lat="45.47666" lon="5.46069">
        <ele>441.5</ele>
        <time>2013-06-16T12:55:16Z</time>
      </trkpt>
      <trkpt lat="45.47629" lon="5.46023">
        <ele>439.79998779297</ele>
        <time>2013-06-16T12:55:50Z</time>
      </trkpt>
      <trkpt lat="45.476" lon="5.45986">
        <ele>438.29998779297</ele>
        <time>2013-06-16T12:56:17Z</time>
      </trkpt>
      <trkpt lat="45.47568" lon="5.45951">
        <ele>438</ele>
        <time>2013-06-16T12:56:42Z</time>
      </trkpt>
      <trkpt lat="45.47528" lon="5.45985">
        <ele>445.70001220703</ele>
        <time>2013-06-16T12:57:10Z</time>
      </trkpt>
      <trkpt lat="45.47509" lon="5.46018">
        <ele>446.40002441406</ele>
        <time>2013-06-16T12:57:32Z</time>
      </trkpt>
      <trkpt lat="45.4748" lon="5.46064">
        <ele>453.59997558594</ele>
        <time>2013-06-16T12:57:59Z</time>
      </trkpt>
      <trkpt lat="45.47461" lon="5.46083">
        <ele>448.5</ele>
        <time>2013-06-16T12:58:22Z</time>
      </trkpt>
      <trkpt lat="45.47439" lon="5.46064">
        <ele>453.40002441406</ele>
        <time>2013-06-16T12:58:46Z</time>
      </trkpt>
      <trkpt lat="45.47408" lon="5.46017">
        <ele>453.29998779297</ele>
        <time>2013-06-16T12:59:21Z</time>
      </trkpt>
      <trkpt lat="45.47386" lon="5.45981">
        <ele>446.90002441406</ele>
        <time>2013-06-16T12:59:54Z</time>
      </trkpt>
      <trkpt lat="45.47368" lon="5.45956">
        <ele>449.70001220703</ele>
        <time>2013-06-16T13:00:20Z</time>
      </trkpt>
      <trkpt lat="45.47354" lon="5.45937">
        <ele>448.40002441406</ele>
        <time>2013-06-16T13:02:52Z</time>
      </trkpt>
      <trkpt lat="45.47298" lon="5.45869">
        <ele>436.5</ele>
        <time>2013-06-16T13:03:27Z</time>
      </trkpt>
      <trkpt lat="45.47151" lon="5.45739">
        <ele>424.20001220703</ele>
        <time>2013-06-16T13:04:02Z</time>
      </trkpt>
      <trkpt lat="45.47107" lon="5.45691">
        <ele>433.79998779297</ele>
        <time>2013-06-16T13:04:37Z</time>
      </trkpt>
      <trkpt lat="45.47046" lon="5.45592">
        <ele>431.40002441406</ele>
        <time>2013-06-16T13:05:12Z</time>
      </trkpt>
      <trkpt lat="45.46935" lon="5.45421">
        <ele>421.29998779297</ele>
        <time>2013-06-16T13:05:45Z</time>
      </trkpt>
      <trkpt lat="45.46822" lon="5.45327">
        <ele>449</ele>
        <time>2013-06-16T13:06:17Z</time>
      </trkpt>
      <trkpt lat="45.4679" lon="5.45299">
        <ele>453.20001220703</ele>
        <time>2013-06-16T13:06:44Z</time>
      </trkpt>
      <trkpt lat="45.46777" lon="5.45298">
        <ele>458.29998779297</ele>
        <time>2013-06-16T13:07:10Z</time>
      </trkpt>
      <trkpt lat="45.46795" lon="5.45275">
        <ele>455</ele>
        <time>2013-06-16T13:07:33Z</time>
      </trkpt>
      <trkpt lat="45.46826" lon="5.45222">
        <ele>454.29998779297</ele>
        <time>2013-06-16T13:08:08Z</time>
      </trkpt>
      <trkpt lat="45.46828" lon="5.45167">
        <ele>446</ele>
        <time>2013-06-16T13:08:42Z</time>
      </trkpt>
      <trkpt lat="45.46789" lon="5.45146">
        <ele>439.5</ele>
        <time>2013-06-16T13:09:13Z</time>
      </trkpt>
      <trkpt lat="45.4671" lon="5.45073">
        <ele>430.40002441406</ele>
        <time>2013-06-16T13:09:46Z</time>
      </trkpt>
      <trkpt lat="45.46607" lon="5.45021">
        <ele>447</ele>
        <time>2013-06-16T13:10:21Z</time>
      </trkpt>
      <trkpt lat="45.46558" lon="5.45011">
        <ele>445.70001220703</ele>
        <time>2013-06-16T13:10:55Z</time>
      </trkpt>
      <trkpt lat="45.46527" lon="5.45011">
        <ele>444.70001220703</ele>
        <time>2013-06-16T13:11:17Z</time>
      </trkpt>
      <trkpt lat="45.46448" lon="5.4506">
        <ele>442.40002441406</ele>
        <time>2013-06-16T13:11:52Z</time>
      </trkpt>
      <trkpt lat="45.46294" lon="5.44946">
        <ele>449.70001220703</ele>
        <time>2013-06-16T13:12:24Z</time>
      </trkpt>
      <trkpt lat="45.46263" lon="5.44926">
        <ele>449.5</ele>
        <time>2013-06-16T13:12:59Z</time>
      </trkpt>
      <trkpt lat="45.46243" lon="5.44949">
        <ele>451.5</ele>
        <time>2013-06-16T13:13:33Z</time>
      </trkpt>
      <trkpt lat="45.46265" lon="5.44927">
        <ele>454.29998779297</ele>
        <time>2013-06-16T13:14:19Z</time>
      </trkpt>
      <trkpt lat="45.46244" lon="5.44886">
        <ele>466.70001220703</ele>
        <time>2013-06-16T13:14:45Z</time>
      </trkpt>
      <trkpt lat="45.46209" lon="5.44863">
        <ele>454.90002441406</ele>
        <time>2013-06-16T13:15:08Z</time>
      </trkpt>
      <trkpt lat="45.4618" lon="5.44838">
        <ele>454.29998779297</ele>
        <time>2013-06-16T13:15:33Z</time>
      </trkpt>
      <trkpt lat="45.46147" lon="5.448">
        <ele>458.79998779297</ele>
        <time>2013-06-16T13:16:02Z</time>
      </trkpt>
      <trkpt lat="45.46103" lon="5.4478">
        <ele>453.59997558594</ele>
        <time>2013-06-16T13:16:37Z</time>
      </trkpt>
      <trkpt lat="45.4607" lon="5.44753">
        <ele>454</ele>
        <time>2013-06-16T13:17:09Z</time>
      </trkpt>
      <trkpt lat="45.46037" lon="5.44724">
        <ele>456.59997558594</ele>
        <time>2013-06-16T13:17:37Z</time>
      </trkpt>
      <trkpt lat="45.46008" lon="5.44689">
        <ele>458.5</ele>
        <time>2013-06-16T13:18:12Z</time>
      </trkpt>
      <trkpt lat="45.45969" lon="5.44648">
        <ele>462.20001220703</ele>
        <time>2013-06-16T13:18:46Z</time>
      </trkpt>
      <trkpt lat="45.45951" lon="5.44644">
        <ele>459.90002441406</ele>
        <time>2013-06-16T13:19:18Z</time>
      </trkpt>
      <trkpt lat="45.45933" lon="5.44677">
        <ele>454.40002441406</ele>
        <time>2013-06-16T13:19:43Z</time>
      </trkpt>
      <trkpt lat="45.45919" lon="5.44698">
        <ele>446.70001220703</ele>
        <time>2013-06-16T13:20:06Z</time>
      </trkpt>
      <trkpt lat="45.45925" lon="5.44719">
        <ele>466.09997558594</ele>
        <time>2013-06-16T13:20:54Z</time>
      </trkpt>
      <trkpt lat="45.45926" lon="5.44682">
        <ele>455.20001220703</ele>
        <time>2013-06-16T13:21:47Z</time>
      </trkpt>
      <trkpt lat="45.45954" lon="5.44631">
        <ele>458.40002441406</ele>
        <time>2013-06-16T13:22:21Z</time>
      </trkpt>
      <trkpt lat="45.45936" lon="5.44598">
        <ele>452.70001220703</ele>
        <time>2013-06-16T13:22:45Z</time>
      </trkpt>
      <trkpt lat="45.45921" lon="5.44556">
        <ele>455</ele>
        <time>2013-06-16T13:23:09Z</time>
      </trkpt>
      <trkpt lat="45.45904" lon="5.44501">
        <ele>457.90002441406</ele>
        <time>2013-06-16T13:23:38Z</time>
      </trkpt>
      <trkpt lat="45.45885" lon="5.44448">
        <ele>456.20001220703</ele>
        <time>2013-06-16T13:24:08Z</time>
      </trkpt>
      <trkpt lat="45.45868" lon="5.44396">
        <ele>456.29998779297</ele>
        <time>2013-06-16T13:24:37Z</time>
      </trkpt>
      <trkpt lat="45.45836" lon="5.44352">
        <ele>460.29998779297</ele>
        <time>2013-06-16T13:25:07Z</time>
      </trkpt>
      <trkpt lat="45.45811" lon="5.44332">
        <ele>455.40002441406</ele>
        <time>2013-06-16T13:25:31Z</time>
      </trkpt>
      <trkpt lat="45.45783" lon="5.44297">
        <ele>459.09997558594</ele>
        <time>2013-06-16T13:25:55Z</time>
      </trkpt>
      <trkpt lat="45.45749" lon="5.44251">
        <ele>459.09997558594</ele>
        <time>2013-06-16T13:26:29Z</time>
      </trkpt>
      <trkpt lat="45.45723" lon="5.44196">
        <ele>462.09997558594</ele>
        <time>2013-06-16T13:27:03Z</time>
      </trkpt>
      <trkpt lat="45.45702" lon="5.44143">
        <ele>461</ele>
        <time>2013-06-16T13:27:35Z</time>
      </trkpt>
      <trkpt lat="45.45669" lon="5.4409">
        <ele>462.90002441406</ele>
        <time>2013-06-16T13:28:10Z</time>
      </trkpt>
      <trkpt lat="45.45644" lon="5.4406">
        <ele>455.29998779297</ele>
        <time>2013-06-16T13:28:36Z</time>
      </trkpt>
      <trkpt lat="45.45607" lon="5.44009">
        <ele>462.79998779297</ele>
        <time>2013-06-16T13:29:11Z</time>
      </trkpt>
      <trkpt lat="45.4558" lon="5.44005">
        <ele>462.5</ele>
        <time>2013-06-16T13:29:36Z</time>
      </trkpt>
      <trkpt lat="45.45557" lon="5.44042">
        <ele>463.09997558594</ele>
        <time>2013-06-16T13:30:00Z</time>
      </trkpt>
      <trkpt lat="45.45521" lon="5.44099">
        <ele>467.09997558594</ele>
        <time>2013-06-16T13:30:32Z</time>
      </trkpt>
      <trkpt lat="45.45498" lon="5.4415">
        <ele>461.09997558594</ele>
        <time>2013-06-16T13:30:57Z</time>
      </trkpt>
      <trkpt lat="45.45471" lon="5.44195">
        <ele>460.70001220703</ele>
        <time>2013-06-16T13:31:25Z</time>
      </trkpt>
      <trkpt lat="45.45436" lon="5.44221">
        <ele>462.70001220703</ele>
        <time>2013-06-16T13:31:52Z</time>
      </trkpt>
      <trkpt lat="45.45385" lon="5.44245">
        <ele>463.59997558594</ele>
        <time>2013-06-16T13:32:22Z</time>
      </trkpt>
      <trkpt lat="45.45358" lon="5.44288">
        <ele>461.70001220703</ele>
        <time>2013-06-16T13:32:50Z</time>
      </trkpt>
      <trkpt lat="45.45323" lon="5.44336">
        <ele>464.70001220703</ele>
        <time>2013-06-16T13:33:20Z</time>
      </trkpt>
      <trkpt lat="45.45294" lon="5.44379">
        <ele>463.5</ele>
        <time>2013-06-16T13:33:45Z</time>
      </trkpt>
      <trkpt lat="45.45265" lon="5.44421">
        <ele>464.29998779297</ele>
        <time>2013-06-16T13:34:12Z</time>
      </trkpt>
      <trkpt lat="45.45284" lon="5.44487">
        <ele>470.20001220703</ele>
        <time>2013-06-16T13:34:46Z</time>
      </trkpt>
      <trkpt lat="45.45281" lon="5.4455">
        <ele>464.70001220703</ele>
        <time>2013-06-16T13:35:13Z</time>
      </trkpt>
      <trkpt lat="45.45272" lon="5.44591">
        <ele>460.40002441406</ele>
        <time>2013-06-16T13:35:36Z</time>
      </trkpt>
      <trkpt lat="45.45255" lon="5.44641">
        <ele>465.79998779297</ele>
        <time>2013-06-16T13:36:03Z</time>
      </trkpt>
      <trkpt lat="45.45232" lon="5.44686">
        <ele>467.90002441406</ele>
        <time>2013-06-16T13:36:28Z</time>
      </trkpt>
      <trkpt lat="45.45208" lon="5.44744">
        <ele>477.59997558594</ele>
        <time>2013-06-16T13:37:02Z</time>
      </trkpt>
      <trkpt lat="45.45217" lon="5.44801">
        <ele>475.90002441406</ele>
        <time>2013-06-16T13:37:32Z</time>
      </trkpt>
      <trkpt lat="45.45238" lon="5.44842">
        <ele>471.59997558594</ele>
        <time>2013-06-16T13:37:57Z</time>
      </trkpt>
      <trkpt lat="45.45249" lon="5.44883">
        <ele>479.40002441406</ele>
        <time>2013-06-16T13:38:20Z</time>
      </trkpt>
      <trkpt lat="45.45234" lon="5.44934">
        <ele>487</ele>
        <time>2013-06-16T13:38:49Z</time>
      </trkpt>
      <trkpt lat="45.45224" lon="5.44976">
        <ele>492.29998779297</ele>
        <time>2013-06-16T13:39:15Z</time>
      </trkpt>
      <trkpt lat="45.45206" lon="5.45039">
        <ele>499.79998779297</ele>
        <time>2013-06-16T13:39:45Z</time>
      </trkpt>
      <trkpt lat="45.45189" lon="5.45097">
        <ele>521</ele>
        <time>2013-06-16T13:40:10Z</time>
      </trkpt>
      <trkpt lat="45.45158" lon="5.45129">
        <ele>510.79998779297</ele>
        <time>2013-06-16T13:40:42Z</time>
      </trkpt>
      <trkpt lat="45.45133" lon="5.45184">
        <ele>518.79998779297</ele>
        <time>2013-06-16T13:41:17Z</time>
      </trkpt>
      <trkpt lat="45.45093" lon="5.4522">
        <ele>525.5</ele>
        <time>2013-06-16T13:41:52Z</time>
      </trkpt>
      <trkpt lat="45.4505" lon="5.45243">
        <ele>518.40002441406</ele>
        <time>2013-06-16T13:42:27Z</time>
      </trkpt>
      <trkpt lat="45.45004" lon="5.45266">
        <ele>529.40002441406</ele>
        <time>2013-06-16T13:43:00Z</time>
      </trkpt>
      <trkpt lat="45.44964" lon="5.45274">
        <ele>537.5</ele>
        <time>2013-06-16T13:43:34Z</time>
      </trkpt>
      <trkpt lat="45.44928" lon="5.45299">
        <ele>540.80004882812</ele>
        <time>2013-06-16T13:44:09Z</time>
      </trkpt>
      <trkpt lat="45.4491" lon="5.45349">
        <ele>549.09997558594</ele>
        <time>2013-06-16T13:44:38Z</time>
      </trkpt>
      <trkpt lat="45.4489" lon="5.45397">
        <ele>554.80004882812</ele>
        <time>2013-06-16T13:45:08Z</time>
      </trkpt>
      <trkpt lat="45.44876" lon="5.45446">
        <ele>561.09997558594</ele>
        <time>2013-06-16T13:45:39Z</time>
      </trkpt>
      <trkpt lat="45.44867" lon="5.45489">
        <ele>569.69995117188</ele>
        <time>2013-06-16T13:46:05Z</time>
      </trkpt>
      <trkpt lat="45.4485" lon="5.45499">
        <ele>560.59997558594</ele>
        <time>2013-06-16T13:46:39Z</time>
      </trkpt>
      <trkpt lat="45.44825" lon="5.4548">
        <ele>566.69995117188</ele>
        <time>2013-06-16T13:47:07Z</time>
      </trkpt>
      <trkpt lat="45.44787" lon="5.45454">
        <ele>562.40002441406</ele>
        <time>2013-06-16T13:47:43Z</time>
      </trkpt>
      <trkpt lat="45.44751" lon="5.45417">
        <ele>559.19995117188</ele>
        <time>2013-06-16T13:48:18Z</time>
      </trkpt>
      <trkpt lat="45.44717" lon="5.45381">
        <ele>556.5</ele>
        <time>2013-06-16T13:48:53Z</time>
      </trkpt>
      <trkpt lat="45.44682" lon="5.45345">
        <ele>558.19995117188</ele>
        <time>2013-06-16T13:49:28Z</time>
      </trkpt>
      <trkpt lat="45.44648" lon="5.45307">
        <ele>557.30004882812</ele>
        <time>2013-06-16T13:50:02Z</time>
      </trkpt>
      <trkpt lat="45.4461" lon="5.45274">
        <ele>562.69995117188</ele>
        <time>2013-06-16T13:50:37Z</time>
      </trkpt>
      <trkpt lat="45.44575" lon="5.45238">
        <ele>557.09997558594</ele>
        <time>2013-06-16T13:51:12Z</time>
      </trkpt>
      <trkpt lat="45.44537" lon="5.45209">
        <ele>559.90002441406</ele>
        <time>2013-06-16T13:51:47Z</time>
      </trkpt>
      <trkpt lat="45.44493" lon="5.45194">
        <ele>563.30004882812</ele>
        <time>2013-06-16T13:52:22Z</time>
      </trkpt>
      <trkpt lat="45.44473" lon="5.45181">
        <ele>554.19995117188</ele>
        <time>2013-06-16T13:52:57Z</time>
      </trkpt>
      <trkpt lat="45.44454" lon="5.45168">
        <ele>555.19995117188</ele>
        <time>2013-06-16T13:53:32Z</time>
      </trkpt>
      <trkpt lat="45.44428" lon="5.45144">
        <ele>553.90002441406</ele>
        <time>2013-06-16T13:54:06Z</time>
      </trkpt>
      <trkpt lat="45.44416" lon="5.4513">
        <ele>574.09997558594</ele>
        <time>2013-06-16T13:55:16Z</time>
      </trkpt>
      <trkpt lat="45.4439" lon="5.45095">
        <ele>553.59997558594</ele>
        <time>2013-06-16T13:55:50Z</time>
      </trkpt>
      <trkpt lat="45.44353" lon="5.45133">
        <ele>543</ele>
        <time>2013-06-16T13:57:23Z</time>
      </trkpt>
      <trkpt lat="45.44322" lon="5.45165">
        <ele>544</ele>
        <time>2013-06-16T13:57:53Z</time>
      </trkpt>
      <trkpt lat="45.44276" lon="5.45179">
        <ele>551.90002441406</ele>
        <time>2013-06-16T13:58:28Z</time>
      </trkpt>
      <trkpt lat="45.44242" lon="5.45211">
        <ele>550.09997558594</ele>
        <time>2013-06-16T13:59:03Z</time>
      </trkpt>
      <trkpt lat="45.4421" lon="5.45249">
        <ele>552.59997558594</ele>
        <time>2013-06-16T13:59:37Z</time>
      </trkpt>
      <trkpt lat="45.44175" lon="5.45293">
        <ele>560.80004882812</ele>
        <time>2013-06-16T14:00:12Z</time>
      </trkpt>
      <trkpt lat="45.44136" lon="5.45328">
        <ele>557.80004882812</ele>
        <time>2013-06-16T14:00:47Z</time>
      </trkpt>
      <trkpt lat="45.44093" lon="5.45349">
        <ele>560.30004882812</ele>
        <time>2013-06-16T14:01:18Z</time>
      </trkpt>
      <trkpt lat="45.43956" lon="5.45398">
        <ele>576.5</ele>
        <time>2013-06-16T14:01:52Z</time>
      </trkpt>
      <trkpt lat="45.43925" lon="5.4544">
        <ele>584.80004882812</ele>
        <time>2013-06-16T14:02:23Z</time>
      </trkpt>
      <trkpt lat="45.43884" lon="5.45468">
        <ele>579.59997558594</ele>
        <time>2013-06-16T14:03:06Z</time>
      </trkpt>
      <trkpt lat="45.43848" lon="5.45507">
        <ele>595.5</ele>
        <time>2013-06-16T14:03:50Z</time>
      </trkpt>
      <trkpt lat="45.43805" lon="5.45538">
        <ele>589</ele>
        <time>2013-06-16T14:04:33Z</time>
      </trkpt>
      <trkpt lat="45.43763" lon="5.45569">
        <ele>618.19995117188</ele>
        <time>2013-06-16T14:05:18Z</time>
      </trkpt>
      <trkpt lat="45.4371" lon="5.45583">
        <ele>634.09997558594</ele>
        <time>2013-06-16T14:05:55Z</time>
      </trkpt>
      <trkpt lat="45.43675" lon="5.45607">
        <ele>635.40002441406</ele>
        <time>2013-06-16T14:06:30Z</time>
      </trkpt>
      <trkpt lat="45.43634" lon="5.45642">
        <ele>644.19995117188</ele>
        <time>2013-06-16T14:07:04Z</time>
      </trkpt>
      <trkpt lat="45.43594" lon="5.4566">
        <ele>644</ele>
        <time>2013-06-16T14:07:38Z</time>
      </trkpt>
      <trkpt lat="45.4355" lon="5.45694">
        <ele>654.40002441406</ele>
        <time>2013-06-16T14:08:13Z</time>
      </trkpt>
      <trkpt lat="45.43503" lon="5.4573">
        <ele>640.09997558594</ele>
        <time>2013-06-16T14:08:58Z</time>
      </trkpt>
      <trkpt lat="45.4346" lon="5.45751">
        <ele>641.90002441406</ele>
        <time>2013-06-16T14:09:32Z</time>
      </trkpt>
      <trkpt lat="45.43421" lon="5.45783">
        <ele>649.80004882812</ele>
        <time>2013-06-16T14:10:06Z</time>
      </trkpt>
      <trkpt lat="45.43391" lon="5.45833">
        <ele>642.90002441406</ele>
        <time>2013-06-16T14:10:41Z</time>
      </trkpt>
      <trkpt lat="45.43358" lon="5.45882">
        <ele>640.09997558594</ele>
        <time>2013-06-16T14:11:16Z</time>
      </trkpt>
      <trkpt lat="45.43329" lon="5.45927">
        <ele>636.69995117188</ele>
        <time>2013-06-16T14:11:45Z</time>
      </trkpt>
      <trkpt lat="45.43306" lon="5.45972">
        <ele>635.09997558594</ele>
        <time>2013-06-16T14:12:14Z</time>
      </trkpt>
      <trkpt lat="45.43284" lon="5.46033">
        <ele>636.59997558594</ele>
        <time>2013-06-16T14:12:48Z</time>
      </trkpt>
      <trkpt lat="45.4326" lon="5.461">
        <ele>642.30004882812</ele>
        <time>2013-06-16T14:13:22Z</time>
      </trkpt>
      <trkpt lat="45.43229" lon="5.46127">
        <ele>638.90002441406</ele>
        <time>2013-06-16T14:13:51Z</time>
      </trkpt>
      <trkpt lat="45.43204" lon="5.46151">
        <ele>638.19995117188</ele>
        <time>2013-06-16T14:14:13Z</time>
      </trkpt>
      <trkpt lat="45.43175" lon="5.46189">
        <ele>637.30004882812</ele>
        <time>2013-06-16T14:14:48Z</time>
      </trkpt>
      <trkpt lat="45.43155" lon="5.46248">
        <ele>641.80004882812</ele>
        <time>2013-06-16T14:15:23Z</time>
      </trkpt>
      <trkpt lat="45.43136" lon="5.46297">
        <ele>631</ele>
        <time>2013-06-16T14:15:58Z</time>
      </trkpt>
      <trkpt lat="45.43117" lon="5.46351">
        <ele>624.80004882812</ele>
        <time>2013-06-16T14:16:33Z</time>
      </trkpt>
      <trkpt lat="45.43106" lon="5.46419">
        <ele>633.30004882812</ele>
        <time>2013-06-16T14:17:08Z</time>
      </trkpt>
      <trkpt lat="45.43106" lon="5.46475">
        <ele>625.30004882812</ele>
        <time>2013-06-16T14:17:41Z</time>
      </trkpt>
      <trkpt lat="45.43108" lon="5.46545">
        <ele>645</ele>
        <time>2013-06-16T14:18:15Z</time>
      </trkpt>
      <trkpt lat="45.43139" lon="5.46596">
        <ele>633.09997558594</ele>
        <time>2013-06-16T14:18:50Z</time>
      </trkpt>
      <trkpt lat="45.43166" lon="5.46646">
        <ele>636.30004882812</ele>
        <time>2013-06-16T14:19:25Z</time>
      </trkpt>
      <trkpt lat="45.43194" lon="5.46695">
        <ele>635.5</ele>
        <time>2013-06-16T14:19:59Z</time>
      </trkpt>
      <trkpt lat="45.43223" lon="5.46745">
        <ele>639.90002441406</ele>
        <time>2013-06-16T14:20:34Z</time>
      </trkpt>
      <trkpt lat="45.43239" lon="5.46701">
        <ele>641.40002441406</ele>
        <time>2013-06-16T14:21:09Z</time>
      </trkpt>
      <trkpt lat="45.43242" lon="5.46688">
        <ele>636.19995117188</ele>
        <time>2013-06-16T14:21:43Z</time>
      </trkpt>
      <trkpt lat="45.43246" lon="5.46701">
        <ele>652.30004882812</ele>
        <time>2013-06-16T14:22:52Z</time>
      </trkpt>
      <trkpt lat="45.43216" lon="5.46724">
        <ele>636.09997558594</ele>
        <time>2013-06-16T14:23:56Z</time>
      </trkpt>
      <trkpt lat="45.43237" lon="5.46778">
        <ele>639.30004882812</ele>
        <time>2013-06-16T14:24:31Z</time>
      </trkpt>
      <trkpt lat="45.43248" lon="5.46843">
        <ele>636.59997558594</ele>
        <time>2013-06-16T14:25:05Z</time>
      </trkpt>
      <trkpt lat="45.43262" lon="5.46906">
        <ele>636.19995117188</ele>
        <time>2013-06-16T14:25:40Z</time>
      </trkpt>
      <trkpt lat="45.4328" lon="5.46963">
        <ele>636.90002441406</ele>
        <time>2013-06-16T14:26:14Z</time>
      </trkpt>
      <trkpt lat="45.43284" lon="5.4703">
        <ele>635.80004882812</ele>
        <time>2013-06-16T14:26:49Z</time>
      </trkpt>
      <trkpt lat="45.43297" lon="5.47092">
        <ele>636.19995117188</ele>
        <time>2013-06-16T14:27:24Z</time>
      </trkpt>
      <trkpt lat="45.433" lon="5.47142">
        <ele>632.80004882812</ele>
        <time>2013-06-16T14:27:58Z</time>
      </trkpt>
      <trkpt lat="45.43326" lon="5.47188">
        <ele>628.40002441406</ele>
        <time>2013-06-16T14:28:32Z</time>
      </trkpt>
      <trkpt lat="45.43365" lon="5.47231">
        <ele>627.5</ele>
        <time>2013-06-16T14:29:06Z</time>
      </trkpt>
      <trkpt lat="45.43393" lon="5.47301">
        <ele>631.80004882812</ele>
        <time>2013-06-16T14:29:40Z</time>
      </trkpt>
      <trkpt lat="45.43407" lon="5.47318">
        <ele>637.19995117188</ele>
        <time>2013-06-16T14:30:08Z</time>
      </trkpt>
      <trkpt lat="45.43423" lon="5.47334">
        <ele>631.59997558594</ele>
        <time>2013-06-16T14:30:43Z</time>
      </trkpt>
      <trkpt lat="45.43457" lon="5.47372">
        <ele>634.5</ele>
        <time>2013-06-16T14:31:17Z</time>
      </trkpt>
      <trkpt lat="45.43494" lon="5.47425">
        <ele>632.5</ele>
        <time>2013-06-16T14:31:51Z</time>
      </trkpt>
      <trkpt lat="45.43651" lon="5.47547">
        <ele>639.59997558594</ele>
        <time>2013-06-16T14:32:26Z</time>
      </trkpt>
      <trkpt lat="45.43852" lon="5.47643">
        <ele>642</ele>
        <time>2013-06-16T14:33:01Z</time>
      </trkpt>
      <trkpt lat="45.43945" lon="5.47665">
        <ele>655.40002441406</ele>
        <time>2013-06-16T14:33:36Z</time>
      </trkpt>
      <trkpt lat="45.43984" lon="5.47696">
        <ele>653.5</ele>
        <time>2013-06-16T14:34:10Z</time>
      </trkpt>
      <trkpt lat="45.44031" lon="5.47682">
        <ele>672.40002441406</ele>
        <time>2013-06-16T14:34:44Z</time>
      </trkpt>
      <trkpt lat="45.44076" lon="5.47689">
        <ele>662.90002441406</ele>
        <time>2013-06-16T14:35:19Z</time>
      </trkpt>
      <trkpt lat="45.44113" lon="5.47716">
        <ele>667.40002441406</ele>
        <time>2013-06-16T14:35:54Z</time>
      </trkpt>
      <trkpt lat="45.44129" lon="5.47795">
        <ele>681.90002441406</ele>
        <time>2013-06-16T14:36:29Z</time>
      </trkpt>
      <trkpt lat="45.44181" lon="5.47841">
        <ele>677.09997558594</ele>
        <time>2013-06-16T14:37:03Z</time>
      </trkpt>
      <trkpt lat="45.44245" lon="5.47885">
        <ele>679.09997558594</ele>
        <time>2013-06-16T14:37:37Z</time>
      </trkpt>
      <trkpt lat="45.44292" lon="5.47916">
        <ele>684.69995117188</ele>
        <time>2013-06-16T14:38:11Z</time>
      </trkpt>
      <trkpt lat="45.44333" lon="5.47938">
        <ele>685</ele>
        <time>2013-06-16T14:38:45Z</time>
      </trkpt>
      <trkpt lat="45.44365" lon="5.47986">
        <ele>673.69995117188</ele>
        <time>2013-06-16T14:39:19Z</time>
      </trkpt>
      <trkpt lat="45.44394" lon="5.48026">
        <ele>662.5</ele>
        <time>2013-06-16T14:39:53Z</time>
      </trkpt>
      <trkpt lat="45.44422" lon="5.48075">
        <ele>661.30004882812</ele>
        <time>2013-06-16T14:40:27Z</time>
      </trkpt>
      <trkpt lat="45.44459" lon="5.48139">
        <ele>654.5</ele>
        <time>2013-06-16T14:41:01Z</time>
      </trkpt>
      <trkpt lat="45.44507" lon="5.48136">
        <ele>645.69995117188</ele>
        <time>2013-06-16T14:41:35Z</time>
      </trkpt>
      <trkpt lat="45.44544" lon="5.48152">
        <ele>667.59997558594</ele>
        <time>2013-06-16T14:42:09Z</time>
      </trkpt>
      <trkpt lat="45.44594" lon="5.4818">
        <ele>670.5</ele>
        <time>2013-06-16T14:42:43Z</time>
      </trkpt>
      <trkpt lat="45.4462" lon="5.48191">
        <ele>673.40002441406</ele>
        <time>2013-06-16T14:43:09Z</time>
      </trkpt>
      <trkpt lat="45.44632" lon="5.48197">
        <ele>667</ele>
        <time>2013-06-16T14:43:43Z</time>
      </trkpt>
      <trkpt lat="45.44619" lon="5.482">
        <ele>670.09997558594</ele>
        <time>2013-06-16T14:44:51Z</time>
      </trkpt>
      <trkpt lat="45.44601" lon="5.48252">
        <ele>667.09997558594</ele>
        <time>2013-06-16T14:45:25Z</time>
      </trkpt>
      <trkpt lat="45.44626" lon="5.48303">
        <ele>657</ele>
        <time>2013-06-16T14:45:59Z</time>
      </trkpt>
      <trkpt lat="45.44644" lon="5.48379">
        <ele>673.80004882812</ele>
        <time>2013-06-16T14:46:33Z</time>
      </trkpt>
      <trkpt lat="45.44648" lon="5.4842">
        <ele>661.69995117188</ele>
        <time>2013-06-16T14:47:07Z</time>
      </trkpt>
      <trkpt lat="45.44652" lon="5.48492">
        <ele>668.90002441406</ele>
        <time>2013-06-16T14:47:42Z</time>
      </trkpt>
      <trkpt lat="45.44675" lon="5.48562">
        <ele>668.09997558594</ele>
        <time>2013-06-16T14:48:16Z</time>
      </trkpt>
      <trkpt lat="45.44701" lon="5.48606">
        <ele>663.69995117188</ele>
        <time>2013-06-16T14:48:50Z</time>
      </trkpt>
      <trkpt lat="45.44725" lon="5.48664">
        <ele>670.59997558594</ele>
        <time>2013-06-16T14:49:24Z</time>
      </trkpt>
      <trkpt lat="45.44742" lon="5.48724">
        <ele>676</ele>
        <time>2013-06-16T14:49:58Z</time>
      </trkpt>
      <trkpt lat="45.44772" lon="5.48769">
        <ele>663.09997558594</ele>
        <time>2013-06-16T14:50:32Z</time>
      </trkpt>
      <trkpt lat="45.44792" lon="5.48828">
        <ele>679.69995117188</ele>
        <time>2013-06-16T14:51:07Z</time>
      </trkpt>
      <trkpt lat="45.44822" lon="5.48882">
        <ele>667.09997558594</ele>
        <time>2013-06-16T14:51:41Z</time>
      </trkpt>
      <trkpt lat="45.44848" lon="5.48936">
        <ele>660.40002441406</ele>
        <time>2013-06-16T14:52:16Z</time>
      </trkpt>
      <trkpt lat="45.44868" lon="5.48986">
        <ele>662.5</ele>
        <time>2013-06-16T14:52:50Z</time>
      </trkpt>
      <trkpt lat="45.44894" lon="5.49042">
        <ele>647.19995117188</ele>
        <time>2013-06-16T14:53:24Z</time>
      </trkpt>
      <trkpt lat="45.44911" lon="5.49115">
        <ele>655.69995117188</ele>
        <time>2013-06-16T14:53:59Z</time>
      </trkpt>
      <trkpt lat="45.44921" lon="5.49163">
        <ele>638.09997558594</ele>
        <time>2013-06-16T14:54:32Z</time>
      </trkpt>
      <trkpt lat="45.44935" lon="5.49215">
        <ele>630</ele>
        <time>2013-06-16T14:55:06Z</time>
      </trkpt>
      <trkpt lat="45.44958" lon="5.49255">
        <ele>620.19995117188</ele>
        <time>2013-06-16T14:55:40Z</time>
      </trkpt>
      <trkpt lat="45.44983" lon="5.493">
        <ele>625.80004882812</ele>
        <time>2013-06-16T14:56:15Z</time>
      </trkpt>
      <trkpt lat="45.45012" lon="5.4935">
        <ele>624.09997558594</ele>
        <time>2013-06-16T14:56:49Z</time>
      </trkpt>
      <trkpt lat="45.45046" lon="5.49375">
        <ele>616.59997558594</ele>
        <time>2013-06-16T14:57:20Z</time>
      </trkpt>
      <trkpt lat="45.4507" lon="5.4941">
        <ele>606.90002441406</ele>
        <time>2013-06-16T14:57:48Z</time>
      </trkpt>
      <trkpt lat="45.45107" lon="5.49447">
        <ele>606.80004882812</ele>
        <time>2013-06-16T14:58:22Z</time>
      </trkpt>
      <trkpt lat="45.45131" lon="5.49491">
        <ele>602.90002441406</ele>
        <time>2013-06-16T14:58:55Z</time>
      </trkpt>
      <trkpt lat="45.45142" lon="5.4954">
        <ele>594.90002441406</ele>
        <time>2013-06-16T14:59:30Z</time>
      </trkpt>
      <trkpt lat="45.45157" lon="5.49597">
        <ele>596.40002441406</ele>
        <time>2013-06-16T14:59:57Z</time>
      </trkpt>
      <trkpt lat="45.45193" lon="5.49629">
        <ele>594.5</ele>
        <time>2013-06-16T15:00:29Z</time>
      </trkpt>
      <trkpt lat="45.45218" lon="5.49654">
        <ele>594</ele>
        <time>2013-06-16T15:00:51Z</time>
      </trkpt>
      <trkpt lat="45.45248" lon="5.49692">
        <ele>594.69995117188</ele>
        <time>2013-06-16T15:01:19Z</time>
      </trkpt>
      <trkpt lat="45.4527" lon="5.49735">
        <ele>597.30004882812</ele>
        <time>2013-06-16T15:01:44Z</time>
      </trkpt>
      <trkpt lat="45.45296" lon="5.49784">
        <ele>590.59997558594</ele>
        <time>2013-06-16T15:02:16Z</time>
      </trkpt>
      <trkpt lat="45.45303" lon="5.49828">
        <ele>593.09997558594</ele>
        <time>2013-06-16T15:02:39Z</time>
      </trkpt>
      <trkpt lat="45.45312" lon="5.49876">
        <ele>598.09997558594</ele>
        <time>2013-06-16T15:03:05Z</time>
      </trkpt>
      <trkpt lat="45.45327" lon="5.49926">
        <ele>598.40002441406</ele>
        <time>2013-06-16T15:03:33Z</time>
      </trkpt>
      <trkpt lat="45.45347" lon="5.49955">
        <ele>593.19995117188</ele>
        <time>2013-06-16T15:03:58Z</time>
      </trkpt>
      <trkpt lat="45.45368" lon="5.49997">
        <ele>592.69995117188</ele>
        <time>2013-06-16T15:04:23Z</time>
      </trkpt>
      <trkpt lat="45.45395" lon="5.50052">
        <ele>595.5</ele>
        <time>2013-06-16T15:04:58Z</time>
      </trkpt>
      <trkpt lat="45.45425" lon="5.50089">
        <ele>591.69995117188</ele>
        <time>2013-06-16T15:05:23Z</time>
      </trkpt>
      <trkpt lat="45.45448" lon="5.50124">
        <ele>594.09997558594</ele>
        <time>2013-06-16T15:05:46Z</time>
      </trkpt>
      <trkpt lat="45.45463" lon="5.50156">
        <ele>583.59997558594</ele>
        <time>2013-06-16T15:06:10Z</time>
      </trkpt>
      <trkpt lat="45.45487" lon="5.50196">
        <ele>579.90002441406</ele>
        <time>2013-06-16T15:06:36Z</time>
      </trkpt>
      <trkpt lat="45.45511" lon="5.50231">
        <ele>581.80004882812</ele>
        <time>2013-06-16T15:07:01Z</time>
      </trkpt>
      <trkpt lat="45.4554" lon="5.50269">
        <ele>579.90002441406</ele>
        <time>2013-06-16T15:07:26Z</time>
      </trkpt>
      <trkpt lat="45.45582" lon="5.50297">
        <ele>579.5</ele>
        <time>2013-06-16T15:07:54Z</time>
      </trkpt>
      <trkpt lat="45.45598" lon="5.5034">
        <ele>581</ele>
        <time>2013-06-16T15:08:17Z</time>
      </trkpt>
      <trkpt lat="45.45613" lon="5.50379">
        <ele>582.90002441406</ele>
        <time>2013-06-16T15:08:41Z</time>
      </trkpt>
      <trkpt lat="45.45636" lon="5.50414">
        <ele>572</ele>
        <time>2013-06-16T15:09:06Z</time>
      </trkpt>
      <trkpt lat="45.45655" lon="5.50465">
        <ele>581</ele>
        <time>2013-06-16T15:09:31Z</time>
      </trkpt>
      <trkpt lat="45.45661" lon="5.50526">
        <ele>591.5</ele>
        <time>2013-06-16T15:09:59Z</time>
      </trkpt>
      <trkpt lat="45.45669" lon="5.50574">
        <ele>587.5</ele>
        <time>2013-06-16T15:10:24Z</time>
      </trkpt>
      <trkpt lat="45.45675" lon="5.50607">
        <ele>573.40002441406</ele>
        <time>2013-06-16T15:10:47Z</time>
      </trkpt>
      <trkpt lat="45.45677" lon="5.50652">
        <ele>578.09997558594</ele>
        <time>2013-06-16T15:11:10Z</time>
      </trkpt>
      <trkpt lat="45.4569" lon="5.50707">
        <ele>585.5</ele>
        <time>2013-06-16T15:11:37Z</time>
      </trkpt>
      <trkpt lat="45.45691" lon="5.50751">
        <ele>575.90002441406</ele>
        <time>2013-06-16T15:12:01Z</time>
      </trkpt>
      <trkpt lat="45.45695" lon="5.50797">
        <ele>572.90002441406</ele>
        <time>2013-06-16T15:12:24Z</time>
      </trkpt>
      <trkpt lat="45.45701" lon="5.5083">
        <ele>568.40002441406</ele>
        <time>2013-06-16T15:12:46Z</time>
      </trkpt>
      <trkpt lat="45.45687" lon="5.50832">
        <ele>562.69995117188</ele>
        <time>2013-06-16T15:13:10Z</time>
      </trkpt>
      <trkpt lat="45.45727" lon="5.50849">
        <ele>569.19995117188</ele>
        <time>2013-06-16T15:14:03Z</time>
      </trkpt>
      <trkpt lat="45.45755" lon="5.50889">
        <ele>566.69995117188</ele>
        <time>2013-06-16T15:14:32Z</time>
      </trkpt>
      <trkpt lat="45.45781" lon="5.50924">
        <ele>567.80004882812</ele>
        <time>2013-06-16T15:14:55Z</time>
      </trkpt>
      <trkpt lat="45.45808" lon="5.50939">
        <ele>569.80004882812</ele>
        <time>2013-06-16T15:15:18Z</time>
      </trkpt>
      <trkpt lat="45.45798" lon="5.5099">
        <ele>571.90002441406</ele>
        <time>2013-06-16T15:15:43Z</time>
      </trkpt>
      <trkpt lat="45.4578" lon="5.51025">
        <ele>571.80004882812</ele>
        <time>2013-06-16T15:16:06Z</time>
      </trkpt>
      <trkpt lat="45.45757" lon="5.51072">
        <ele>577.40002441406</ele>
        <time>2013-06-16T15:16:32Z</time>
      </trkpt>
      <trkpt lat="45.45734" lon="5.51114">
        <ele>577.5</ele>
        <time>2013-06-16T15:16:59Z</time>
      </trkpt>
      <trkpt lat="45.45707" lon="5.51155">
        <ele>575.5</ele>
        <time>2013-06-16T15:17:28Z</time>
      </trkpt>
      <trkpt lat="45.45693" lon="5.51212">
        <ele>578.59997558594</ele>
        <time>2013-06-16T15:18:00Z</time>
      </trkpt>
      <trkpt lat="45.45719" lon="5.51249">
        <ele>581</ele>
        <time>2013-06-16T15:18:31Z</time>
      </trkpt>
      <trkpt lat="45.45751" lon="5.51268">
        <ele>574.40002441406</ele>
        <time>2013-06-16T15:18:54Z</time>
      </trkpt>
      <trkpt lat="45.45782" lon="5.5131">
        <ele>573</ele>
        <time>2013-06-16T15:19:29Z</time>
      </trkpt>
      <trkpt lat="45.45798" lon="5.51369">
        <ele>580.90002441406</ele>
        <time>2013-06-16T15:20:04Z</time>
      </trkpt>
      <trkpt lat="45.45832" lon="5.51415">
        <ele>589.59997558594</ele>
        <time>2013-06-16T15:20:38Z</time>
      </trkpt>
      <trkpt lat="45.45844" lon="5.51466">
        <ele>594.5</ele>
        <time>2013-06-16T15:21:13Z</time>
      </trkpt>
      <trkpt lat="45.45838" lon="5.51516">
        <ele>604.59997558594</ele>
        <time>2013-06-16T15:21:47Z</time>
      </trkpt>
      <trkpt lat="45.45798" lon="5.51545">
        <ele>609.80004882812</ele>
        <time>2013-06-16T15:22:22Z</time>
      </trkpt>
      <trkpt lat="45.45757" lon="5.51567">
        <ele>610.09997558594</ele>
        <time>2013-06-16T15:22:56Z</time>
      </trkpt>
      <trkpt lat="45.45706" lon="5.51586">
        <ele>613.5</ele>
        <time>2013-06-16T15:23:30Z</time>
      </trkpt>
      <trkpt lat="45.45678" lon="5.51606">
        <ele>604</ele>
        <time>2013-06-16T15:24:04Z</time>
      </trkpt>
      <trkpt lat="45.45673" lon="5.51637">
        <ele>621</ele>
        <time>2013-06-16T15:24:39Z</time>
      </trkpt>
      <trkpt lat="45.45637" lon="5.51673">
        <ele>620.5</ele>
        <time>2013-06-16T15:25:14Z</time>
      </trkpt>
      <trkpt lat="45.45616" lon="5.5171">
        <ele>622.40002441406</ele>
        <time>2013-06-16T15:25:41Z</time>
      </trkpt>
      <trkpt lat="45.45607" lon="5.5176">
        <ele>624.19995117188</ele>
        <time>2013-06-16T15:26:08Z</time>
      </trkpt>
      <trkpt lat="45.45605" lon="5.51802">
        <ele>621.69995117188</ele>
        <time>2013-06-16T15:26:36Z</time>
      </trkpt>
      <trkpt lat="45.45599" lon="5.51933">
        <ele>621.59997558594</ele>
        <time>2013-06-16T15:27:10Z</time>
      </trkpt>
      <trkpt lat="45.45603" lon="5.52088">
        <ele>623.40002441406</ele>
        <time>2013-06-16T15:27:45Z</time>
      </trkpt>
      <trkpt lat="45.45699" lon="5.52217">
        <ele>634.09997558594</ele>
        <time>2013-06-16T15:28:20Z</time>
      </trkpt>
      <trkpt lat="45.45761" lon="5.52261">
        <ele>644.90002441406</ele>
        <time>2013-06-16T15:28:43Z</time>
      </trkpt>
      <trkpt lat="45.45793" lon="5.52268">
        <ele>643.80004882812</ele>
        <time>2013-06-16T15:29:09Z</time>
      </trkpt>
      <trkpt lat="45.45867" lon="5.523">
        <ele>643.40002441406</ele>
        <time>2013-06-16T15:29:44Z</time>
      </trkpt>
      <trkpt lat="45.45932" lon="5.52357">
        <ele>641.19995117188</ele>
        <time>2013-06-16T15:30:19Z</time>
      </trkpt>
      <trkpt lat="45.45944" lon="5.52404">
        <ele>642.90002441406</ele>
        <time>2013-06-16T15:30:46Z</time>
      </trkpt>
      <trkpt lat="45.45915" lon="5.52451">
        <ele>646.09997558594</ele>
        <time>2013-06-16T15:31:21Z</time>
      </trkpt>
      <trkpt lat="45.45911" lon="5.52515">
        <ele>648.40002441406</ele>
        <time>2013-06-16T15:31:55Z</time>
      </trkpt>
      <trkpt lat="45.45915" lon="5.52583">
        <ele>663.30004882812</ele>
        <time>2013-06-16T15:32:29Z</time>
      </trkpt>
      <trkpt lat="45.45942" lon="5.52616">
        <ele>663.59997558594</ele>
        <time>2013-06-16T15:33:03Z</time>
      </trkpt>
      <trkpt lat="45.4595" lon="5.5268">
        <ele>673.5</ele>
        <time>2013-06-16T15:33:34Z</time>
      </trkpt>
      <trkpt lat="45.45947" lon="5.5275">
        <ele>677.80004882812</ele>
        <time>2013-06-16T15:34:09Z</time>
      </trkpt>
      <trkpt lat="45.45965" lon="5.52802">
        <ele>681.69995117188</ele>
        <time>2013-06-16T15:34:43Z</time>
      </trkpt>
      <trkpt lat="45.46004" lon="5.52854">
        <ele>681.80004882812</ele>
        <time>2013-06-16T15:35:17Z</time>
      </trkpt>
      <trkpt lat="45.4603" lon="5.52908">
        <ele>683.40002441406</ele>
        <time>2013-06-16T15:35:52Z</time>
      </trkpt>
      <trkpt lat="45.46041" lon="5.52952">
        <ele>674.90002441406</ele>
        <time>2013-06-16T15:36:18Z</time>
      </trkpt>
      <trkpt lat="45.46069" lon="5.5301">
        <ele>669.09997558594</ele>
        <time>2013-06-16T15:36:52Z</time>
      </trkpt>
      <trkpt lat="45.46098" lon="5.53059">
        <ele>671.19995117188</ele>
        <time>2013-06-16T15:37:26Z</time>
      </trkpt>
      <trkpt lat="45.46139" lon="5.5311">
        <ele>669</ele>
        <time>2013-06-16T15:38:00Z</time>
      </trkpt>
      <trkpt lat="45.46174" lon="5.53126">
        <ele>663.59997558594</ele>
        <time>2013-06-16T15:38:34Z</time>
      </trkpt>
      <trkpt lat="45.46224" lon="5.53107">
        <ele>676.09997558594</ele>
        <time>2013-06-16T15:39:08Z</time>
      </trkpt>
      <trkpt lat="45.46253" lon="5.53078">
        <ele>669</ele>
        <time>2013-06-16T15:39:43Z</time>
      </trkpt>
      <trkpt lat="45.46289" lon="5.53042">
        <ele>671.69995117188</ele>
        <time>2013-06-16T15:40:18Z</time>
      </trkpt>
      <trkpt lat="45.46348" lon="5.53053">
        <ele>676.80004882812</ele>
        <time>2013-06-16T15:40:53Z</time>
      </trkpt>
      <trkpt lat="45.46382" lon="5.53028">
        <ele>666</ele>
        <time>2013-06-16T15:41:27Z</time>
      </trkpt>
      <trkpt lat="45.46438" lon="5.5302">
        <ele>683.69995117188</ele>
        <time>2013-06-16T15:42:01Z</time>
      </trkpt>
      <trkpt lat="45.46479" lon="5.53053">
        <ele>684.09997558594</ele>
        <time>2013-06-16T15:42:31Z</time>
      </trkpt>
      <trkpt lat="45.46513" lon="5.53076">
        <ele>681.5</ele>
        <time>2013-06-16T15:43:04Z</time>
      </trkpt>
      <trkpt lat="45.46553" lon="5.53099">
        <ele>687.90002441406</ele>
        <time>2013-06-16T15:43:37Z</time>
      </trkpt>
      <trkpt lat="45.4659" lon="5.53098">
        <ele>691.19995117188</ele>
        <time>2013-06-16T15:44:03Z</time>
      </trkpt>
      <trkpt lat="45.46634" lon="5.53104">
        <ele>683</ele>
        <time>2013-06-16T15:44:38Z</time>
      </trkpt>
      <trkpt lat="45.46675" lon="5.53116">
        <ele>688.80004882812</ele>
        <time>2013-06-16T15:45:06Z</time>
      </trkpt>
      <trkpt lat="45.46716" lon="5.53138">
        <ele>689.80004882812</ele>
        <time>2013-06-16T15:45:40Z</time>
      </trkpt>
      <trkpt lat="45.4674" lon="5.5318">
        <ele>684.90002441406</ele>
        <time>2013-06-16T15:46:14Z</time>
      </trkpt>
      <trkpt lat="45.46787" lon="5.53188">
        <ele>697</ele>
        <time>2013-06-16T15:46:48Z</time>
      </trkpt>
      <trkpt lat="45.46807" lon="5.53176">
        <ele>698.80004882812</ele>
        <time>2013-06-16T15:47:23Z</time>
      </trkpt>
      <trkpt lat="45.46855" lon="5.53159">
        <ele>702.09997558594</ele>
        <time>2013-06-16T15:47:57Z</time>
      </trkpt>
      <trkpt lat="45.46902" lon="5.53139">
        <ele>712.19995117188</ele>
        <time>2013-06-16T15:48:31Z</time>
      </trkpt>
      <trkpt lat="45.46935" lon="5.53125">
        <ele>714.09997558594</ele>
        <time>2013-06-16T15:49:05Z</time>
      </trkpt>
      <trkpt lat="45.46986" lon="5.53119">
        <ele>718.40002441406</ele>
        <time>2013-06-16T15:49:40Z</time>
      </trkpt>
      <trkpt lat="45.47041" lon="5.53131">
        <ele>712.19995117188</ele>
        <time>2013-06-16T15:50:19Z</time>
      </trkpt>
      <trkpt lat="45.47077" lon="5.53163">
        <ele>696.59997558594</ele>
        <time>2013-06-16T15:50:53Z</time>
      </trkpt>
      <trkpt lat="45.47117" lon="5.53191">
        <ele>695.5</ele>
        <time>2013-06-16T15:51:26Z</time>
      </trkpt>
      <trkpt lat="45.47163" lon="5.5321">
        <ele>697.5</ele>
        <time>2013-06-16T15:51:57Z</time>
      </trkpt>
      <trkpt lat="45.47201" lon="5.53233">
        <ele>698.40002441406</ele>
        <time>2013-06-16T15:52:26Z</time>
      </trkpt>
      <trkpt lat="45.47231" lon="5.53252">
        <ele>696.59997558594</ele>
        <time>2013-06-16T15:52:50Z</time>
      </trkpt>
      <trkpt lat="45.47264" lon="5.53276">
        <ele>696.30004882812</ele>
        <time>2013-06-16T15:53:18Z</time>
      </trkpt>
      <trkpt lat="45.47303" lon="5.53297">
        <ele>694.90002441406</ele>
        <time>2013-06-16T15:53:46Z</time>
      </trkpt>
      <trkpt lat="45.47337" lon="5.53325">
        <ele>698.40002441406</ele>
        <time>2013-06-16T15:54:11Z</time>
      </trkpt>
      <trkpt lat="45.47373" lon="5.53346">
        <ele>693.5</ele>
        <time>2013-06-16T15:54:41Z</time>
      </trkpt>
      <trkpt lat="45.47412" lon="5.5336">
        <ele>697.40002441406</ele>
        <time>2013-06-16T15:55:11Z</time>
      </trkpt>
      <trkpt lat="45.47451" lon="5.53381">
        <ele>693.30004882812</ele>
        <time>2013-06-16T15:55:42Z</time>
      </trkpt>
      <trkpt lat="45.47493" lon="5.53393">
        <ele>690.80004882812</ele>
        <time>2013-06-16T15:56:12Z</time>
      </trkpt>
      <trkpt lat="45.47528" lon="5.53421">
        <ele>690.80004882812</ele>
        <time>2013-06-16T15:56:39Z</time>
      </trkpt>
      <trkpt lat="45.47567" lon="5.53443">
        <ele>691.69995117188</ele>
        <time>2013-06-16T15:57:09Z</time>
      </trkpt>
      <trkpt lat="45.47611" lon="5.53453">
        <ele>687.5</ele>
        <time>2013-06-16T15:57:39Z</time>
      </trkpt>
      <trkpt lat="45.47643" lon="5.53464">
        <ele>686.80004882812</ele>
        <time>2013-06-16T15:58:03Z</time>
      </trkpt>
      <trkpt lat="45.47668" lon="5.53504">
        <ele>691.59997558594</ele>
        <time>2013-06-16T15:58:26Z</time>
      </trkpt>
      <trkpt lat="45.47688" lon="5.53537">
        <ele>690.80004882812</ele>
        <time>2013-06-16T15:58:50Z</time>
      </trkpt>
      <trkpt lat="45.4771" lon="5.53566">
        <ele>689.80004882812</ele>
        <time>2013-06-16T15:59:15Z</time>
      </trkpt>
      <trkpt lat="45.47762" lon="5.53582">
        <ele>692.09997558594</ele>
        <time>2013-06-16T15:59:50Z</time>
      </trkpt>
      <trkpt lat="45.47792" lon="5.53624">
        <ele>684.80004882812</ele>
        <time>2013-06-16T16:00:25Z</time>
      </trkpt>
      <trkpt lat="45.47819" lon="5.53672">
        <ele>679.40002441406</ele>
        <time>2013-06-16T16:01:00Z</time>
      </trkpt>
      <trkpt lat="45.47858" lon="5.5371">
        <ele>684.59997558594</ele>
        <time>2013-06-16T16:01:31Z</time>
      </trkpt>
      <trkpt lat="45.47888" lon="5.53746">
        <ele>680.40002441406</ele>
        <time>2013-06-16T16:02:05Z</time>
      </trkpt>
      <trkpt lat="45.47907" lon="5.53793">
        <ele>661.09997558594</ele>
        <time>2013-06-16T16:02:40Z</time>
      </trkpt>
      <trkpt lat="45.47929" lon="5.53851">
        <ele>667.5</ele>
        <time>2013-06-16T16:03:14Z</time>
      </trkpt>
      <trkpt lat="45.47947" lon="5.53899">
        <ele>659.5</ele>
        <time>2013-06-16T16:03:48Z</time>
      </trkpt>
      <trkpt lat="45.47981" lon="5.53896">
        <ele>661.90002441406</ele>
        <time>2013-06-16T16:04:22Z</time>
      </trkpt>
      <trkpt lat="45.48023" lon="5.53896">
        <ele>655</ele>
        <time>2013-06-16T16:04:56Z</time>
      </trkpt>
      <trkpt lat="45.48074" lon="5.53889">
        <ele>661.09997558594</ele>
        <time>2013-06-16T16:05:30Z</time>
      </trkpt>
      <trkpt lat="45.4812" lon="5.53892">
        <ele>661.69995117188</ele>
        <time>2013-06-16T16:06:04Z</time>
      </trkpt>
      <trkpt lat="45.48158" lon="5.53929">
        <ele>662.40002441406</ele>
        <time>2013-06-16T16:06:38Z</time>
      </trkpt>
      <trkpt lat="45.48179" lon="5.53971">
        <ele>657.09997558594</ele>
        <time>2013-06-16T16:07:10Z</time>
      </trkpt>
      <trkpt lat="45.48193" lon="5.53993">
        <ele>660.30004882812</ele>
        <time>2013-06-16T16:08:19Z</time>
      </trkpt>
      <trkpt lat="45.48216" lon="5.54024">
        <ele>665.19995117188</ele>
        <time>2013-06-16T16:08:53Z</time>
      </trkpt>
      <trkpt lat="45.48258" lon="5.54062">
        <ele>656.59997558594</ele>
        <time>2013-06-16T16:09:27Z</time>
      </trkpt>
      <trkpt lat="45.48281" lon="5.54099">
        <ele>656.09997558594</ele>
        <time>2013-06-16T16:10:02Z</time>
      </trkpt>
      <trkpt lat="45.483" lon="5.54131">
        <ele>662.80004882812</ele>
        <time>2013-06-16T16:10:36Z</time>
      </trkpt>
      <trkpt lat="45.48336" lon="5.54155">
        <ele>653.80004882812</ele>
        <time>2013-06-16T16:11:10Z</time>
      </trkpt>
      <trkpt lat="45.48338" lon="5.54171">
        <ele>654.90002441406</ele>
        <time>2013-06-16T16:11:45Z</time>
      </trkpt>
    </trkseg>
  </trk>
</gpx>